Observation data for Goodnight on 06/25/2019      Previous  Date  Next       Current Mesonet Observations  Soil Data  Daily Summary Page  Observations in Plain Language
KGO1 250500Z 13011KT 22/16 A2999 RMK A01 T02210156  RH  067%=      5-min Rain = 0
KGO1 250501Z 14012KT 22/16 A2999 RMK A01 T02210157  RH  067%=      5-min Rain = 0
KGO1 250502Z 13013KT 22/16 A2999 RMK A01 T02210157  RH  067%=      5-min Rain = 0
KGO1 250503Z 14011KT 22/16 A2999 RMK A01 T02210157  RH  067%=      5-min Rain = 0
KGO1 250504Z 14011KT 22/16 A2999 RMK A01 T02210157  RH  067%=      5-min Rain = 0
KGO1 250505Z 14011KT 22/16 A2999 RMK A01 T02210158  RH  067%=      5-min Rain = 0
KGO1 250506Z 14011KT 22/16 A2999 RMK A01 T02200158  RH  068%=      5-min Rain = 0
KGO1 250507Z 14013KT 22/16 A2999 RMK A01 T02200158  RH  068%=      5-min Rain = 0
KGO1 250508Z 14011KT 22/16 A2999 RMK A01 T02200158  RH  068%=      5-min Rain = 0
KGO1 250509Z 14011KT 22/16 A2999 RMK A01 T02200159  RH  068%=      5-min Rain = 0
KGO1 250510Z 14012KT 22/16 A2999 RMK A01 T02200159  RH  068%=      5-min Rain = 0
KGO1 250511Z 14011KT 22/16 A2999 RMK A01 T02200159  RH  069%=      5-min Rain = 0
KGO1 250512Z 14013KT 22/16 A2999 RMK A01 T02200160  RH  069%=      5-min Rain = 0
KGO1 250513Z 14014KT 22/16 A2999 RMK A01 T02200160  RH  069%=      5-min Rain = 0
KGO1 250514Z 14011KT 22/16 A2999 RMK A01 T02200160  RH  069%=      5-min Rain = 0
KGO1 250515Z 14012KT 22/16 A2999 RMK A01 T02200161  RH  069%=      5-min Rain = 0
KGO1 250516Z 14012KT 22/16 A2999 RMK A01 T02200161  RH  069%=      5-min Rain = 0
KGO1 250517Z 14011KT 22/16 A2999 RMK A01 T02200161  RH  069%=      5-min Rain = 0
KGO1 250518Z 15010KT 22/16 A2999 RMK A01 T02200161  RH  069%=      5-min Rain = 0
KGO1 250519Z 14011KT 22/16 A2999 RMK A01 T02190162  RH  070%=      5-min Rain = 0
KGO1 250520Z 14011KT 22/16 A2999 RMK A01 T02180162  RH  070%=      5-min Rain = 0
KGO1 250521Z 14009KT 22/16 A2999 RMK A01 T02180162  RH  070%=      5-min Rain = 0
KGO1 250522Z 14010KT 22/16 A2999 RMK A01 T02180162  RH  071%=      5-min Rain = 0
KGO1 250523Z 14010KT 22/16 A2999 RMK A01 T02170163  RH  071%=      5-min Rain = 0
KGO1 250524Z 14010KT 22/16 A2999 RMK A01 T02170162  RH  071%=      5-min Rain = 0
KGO1 250525Z 14011KT 22/16 A2999 RMK A01 T02170163  RH  071%=      5-min Rain = 0
KGO1 250526Z 14010KT 22/16 A2999 RMK A01 T02170163  RH  072%=      5-min Rain = 0
KGO1 250527Z 14011KT 22/16 A2999 RMK A01 T02170163  RH  072%=      5-min Rain = 0
KGO1 250528Z 14014KT 22/16 A2999 RMK A01 T02160163  RH  072%=      5-min Rain = 0
KGO1 250529Z 14011KT 22/16 A2999 RMK A01 T02170163  RH  071%=      5-min Rain = 0
KGO1 250530Z 13011KT 22/16 A2999 RMK A01 T02180164  RH  071%=      5-min Rain = 0
KGO1 250531Z 14011KT 22/16 A2999 RMK A01 T02180164  RH  071%=      5-min Rain = 0
KGO1 250532Z 14012KT 22/16 A2999 RMK A01 T02170163  RH  071%=      5-min Rain = 0
KGO1 250533Z 14013KT 22/16 A2999 RMK A01 T02170164  RH  072%=      5-min Rain = 0
KGO1 250534Z 14011KT 22/16 A2999 RMK A01 T02170164  RH  072%=      5-min Rain = 0
KGO1 250535Z 14011KT 22/17 A2999 RMK A01 T02170165  RH  072%=      5-min Rain = 0
KGO1 250536Z 14009KT 22/17 A2999 RMK A01 T02170165  RH  072%=      5-min Rain = 0
KGO1 250537Z 14010KT 22/17 A2999 RMK A01 T02160165  RH  072%=      5-min Rain = 0
KGO1 250538Z 14012KT 22/17 A2999 RMK A01 T02160165  RH  073%=      5-min Rain = 0
KGO1 250539Z 14010KT 22/17 A2999 RMK A01 T02160165  RH  073%=      5-min Rain = 0
KGO1 250540Z 14010KT 22/17 A2999 RMK A01 T02150165  RH  073%=      5-min Rain = 0
KGO1 250541Z 14010KT 22/17 A2999 RMK A01 T02160165  RH  073%=      5-min Rain = 0
KGO1 250542Z 14011KT 22/17 A2999 RMK A01 T02150165  RH  073%=      5-min Rain = 0
KGO1 250543Z 14010KT 22/17 A2999 RMK A01 T02150166  RH  073%=      5-min Rain = 0
KGO1 250544Z 14011KT 21/17 A2999 RMK A01 T02140166  RH  074%=      5-min Rain = 0
KGO1 250545Z 14010KT 21/17 A2999 RMK A01 T02140165  RH  074%=      5-min Rain = 0
KGO1 250546Z 14010KT 22/17 A2999 RMK A01 T02150166  RH  074%=      5-min Rain = 0
KGO1 250547Z 14009KT 21/17 A2999 RMK A01 T02140166  RH  074%=      5-min Rain = 0
KGO1 250548Z 14009KT 21/17 A2999 RMK A01 T02140166  RH  074%=      5-min Rain = 0
KGO1 250549Z 14009KT 21/17 A2999 RMK A01 T02130166  RH  075%=      5-min Rain = 0
KGO1 250550Z 14009KT 21/17 A2999 RMK A01 T02130166  RH  075%=      5-min Rain = 0
KGO1 250551Z 14009KT 21/17 A2999 RMK A01 T02130166  RH  075%=      5-min Rain = 0
KGO1 250552Z 14010KT 21/17 A2999 RMK A01 T02130167  RH  075%=      5-min Rain = 0
KGO1 250553Z 14011KT 21/17 A2999 RMK A01 T02130167  RH  075%=      5-min Rain = 0
KGO1 250554Z 14009KT 21/17 A2999 RMK A01 T02130166  RH  075%=      5-min Rain = 0
KGO1 250555Z 14009KT 21/17 A2999 RMK A01 T02130167  RH  075%=      5-min Rain = 0
KGO1 250556Z 15009KT 21/17 A2999 RMK A01 T02130167  RH  075%=      5-min Rain = 0
KGO1 250557Z 14009KT 21/17 A2999 RMK A01 T02130168  RH  075%=      5-min Rain = 0
KGO1 250558Z 14010KT 21/17 A2999 RMK A01 T02120168  RH  076%=      5-min Rain = 0
KGO1 250559Z 15009KT 21/17 A2999 RMK A01 T02110167  RH  076%=      5-min Rain = 0
KGO1 250600Z 15009KT 21/17 A2999 RMK A01 T02110167  RH  076%=      5-min Rain = 0
KGO1 250601Z 14009KT 21/17 A2999 RMK A01 T02110168  RH  076%=      5-min Rain = 0
KGO1 250602Z 15009KT 21/17 A2999 RMK A01 T02110168  RH  076%=      5-min Rain = 0
KGO1 250603Z 15009KT 21/17 A2999 RMK A01 T02110168  RH  076%=      5-min Rain = 0
KGO1 250604Z 15009KT 21/17 A2999 RMK A01 T02100168  RH  077%=      5-min Rain = 0
KGO1 250605Z 15009KT 21/17 A2999 RMK A01 T02100168  RH  077%=      5-min Rain = 0
KGO1 250606Z 15009KT 21/17 A2999 RMK A01 T02100168  RH  077%=      5-min Rain = 0
KGO1 250607Z 15010KT 21/17 A2999 RMK A01 T02100168  RH  077%=      5-min Rain = 0
KGO1 250608Z 15010KT 21/17 A2999 RMK A01 T02100168  RH  077%=      5-min Rain = 0
KGO1 250609Z 15011KT 21/17 A2999 RMK A01 T02100168  RH  077%=      5-min Rain = 0
KGO1 250610Z 15010KT 21/17 A2999 RMK A01 T02110168  RH  077%=      5-min Rain = 0
KGO1 250611Z 15010KT 21/17 A2999 RMK A01 T02110168  RH  077%=      5-min Rain = 0
KGO1 250612Z 14011KT 21/17 A2999 RMK A01 T02110168  RH  077%=      5-min Rain = 0
KGO1 250613Z 15011KT 21/17 A2999 RMK A01 T02110169  RH  077%=      5-min Rain = 0
KGO1 250614Z 15010KT 21/17 A2999 RMK A01 T02110169  RH  077%=      5-min Rain = 0
KGO1 250615Z 15009KT 21/17 A2999 RMK A01 T02120169  RH  077%=      5-min Rain = 0
KGO1 250616Z 15009KT 21/17 A2999 RMK A01 T02120170  RH  076%=      5-min Rain = 0
KGO1 250617Z 15009KT 21/17 A2999 RMK A01 T02130170  RH  076%=      5-min Rain = 0
KGO1 250618Z 15009KT 21/17 A2999 RMK A01 T02130170  RH  076%=      5-min Rain = 0
KGO1 250619Z 15008KT 21/17 A2999 RMK A01 T02140170  RH  076%=      5-min Rain = 0
KGO1 250620Z 15010KT 21/17 A2999 RMK A01 T02140171  RH  076%=      5-min Rain = 0
KGO1 250621Z 14010KT 22/17 A2999 RMK A01 T02150171  RH  076%=      5-min Rain = 0
KGO1 250622Z 15008KT 22/17 A2999 RMK A01 T02150171  RH  076%=      5-min Rain = 0
KGO1 250623Z 14009KT 22/17 A2999 RMK A01 T02150172  RH  076%=      5-min Rain = 0
KGO1 250624Z 15011KT 22/17 A2999 RMK A01 T02160171  RH  076%=      5-min Rain = 0
KGO1 250625Z 15011KT 22/17 A2999 RMK A01 T02160171  RH  076%=      5-min Rain = 0
KGO1 250626Z 15010KT 22/17 A2999 RMK A01 T02160171  RH  075%=      5-min Rain = 0
KGO1 250627Z 15009KT 22/17 A2999 RMK A01 T02170172  RH  076%=      5-min Rain = 0
KGO1 250628Z 15010KT 22/17 A2999 RMK A01 T02170172  RH  076%=      5-min Rain = 0
KGO1 250629Z 15010KT 22/17 A2999 RMK A01 T02170172  RH  076%=      5-min Rain = 0
KGO1 250630Z 15009KT 22/17 A2999 RMK A01 T02170172  RH  076%=      5-min Rain = 0
KGO1 250631Z 15009KT 22/17 A2999 RMK A01 T02170173  RH  076%=      5-min Rain = 0
KGO1 250632Z 15009KT 22/17 A2999 RMK A01 T02170173  RH  076%=      5-min Rain = 0
KGO1 250633Z 15010KT 22/17 A2999 RMK A01 T02170173  RH  076%=      5-min Rain = 0
KGO1 250634Z 15011KT 22/17 A2999 RMK A01 T02160173  RH  076%=      5-min Rain = 0
KGO1 250635Z 15011KT 22/17 A2999 RMK A01 T02160172  RH  076%=      5-min Rain = 0
KGO1 250636Z 14011KT 22/17 A2999 RMK A01 T02170173  RH  076%=      5-min Rain = 0
KGO1 250637Z 15009KT 22/17 A2999 RMK A01 T02160173  RH  076%=      5-min Rain = 0
KGO1 250638Z 14010KT 22/17 A2999 RMK A01 T02160173  RH  076%=      5-min Rain = 0
KGO1 250639Z 15010KT 22/17 A2999 RMK A01 T02150173  RH  077%=      5-min Rain = 0
KGO1 250640Z 15010KT 22/17 A2999 RMK A01 T02150174  RH  077%=      5-min Rain = 0
KGO1 250641Z 15011KT 22/17 A2999 RMK A01 T02150174  RH  077%=      5-min Rain = 0
KGO1 250642Z 14009KT 21/17 A2999 RMK A01 T02140174  RH  078%=      5-min Rain = 0
KGO1 250643Z 14010KT 21/17 A2999 RMK A01 T02140174  RH  078%=      5-min Rain = 0
KGO1 250644Z 14011KT 21/18 A2999 RMK A01 T02140175  RH  078%=      5-min Rain = 0
KGO1 250645Z 15010KT 21/18 A2999 RMK A01 T02140175  RH  078%=      5-min Rain = 0
KGO1 250646Z 15008KT 22/18 A2999 RMK A01 T02150175  RH  078%=      5-min Rain = 0
KGO1 250647Z 15009KT 22/18 A2999 RMK A01 T02150175  RH  078%=      5-min Rain = 0
KGO1 250648Z 14007KT 22/18 A2999 RMK A01 T02150176  RH  078%=      5-min Rain = 0
KGO1 250649Z 15008KT 22/18 A2999 RMK A01 T02150176  RH  078%=      5-min Rain = 0
KGO1 250650Z 15009KT 21/18 A2999 RMK A01 T02140176  RH  079%=      5-min Rain = 0
KGO1 250651Z 15010KT 21/18 A2999 RMK A01 T02140177  RH  079%=      5-min Rain = 0
KGO1 250652Z 15009KT 21/18 A2999 RMK A01 T02140177  RH  079%=      5-min Rain = 0
KGO1 250653Z 14009KT 21/18 A2999 RMK A01 T02140177  RH  079%=      5-min Rain = 0
KGO1 250654Z 15009KT 22/18 A2999 RMK A01 T02150178  RH  079%=      5-min Rain = 0
KGO1 250655Z 15008KT 22/18 A2999 RMK A01 T02150178  RH  079%=      5-min Rain = 0
KGO1 250656Z 15008KT 22/18 A2999 RMK A01 T02150178  RH  079%=      5-min Rain = 0
KGO1 250657Z 15010KT 22/18 A2999 RMK A01 T02150179  RH  080%=      5-min Rain = 0
KGO1 250658Z 15010KT 22/18 A2999 RMK A01 T02150179  RH  080%=      5-min Rain = 0
KGO1 250659Z 15010KT 22/18 A2999 RMK A01 T02150179  RH  080%=      5-min Rain = 0
KGO1 250700Z 15009KT 22/18 A2999 RMK A01 T02150179  RH  080%=      5-min Rain = 0
KGO1 250701Z 16010KT 22/18 A2999 RMK A01 T02150179  RH  080%=      5-min Rain = 0
KGO1 250702Z 15011KT 22/18 A2999 RMK A01 T02160180  RH  080%=      5-min Rain = 0
KGO1 250703Z 15010KT 22/18 A2999 RMK A01 T02160180  RH  080%=      5-min Rain = 0
KGO1 250704Z 15009KT 22/18 A2999 RMK A01 T02170181  RH  080%=      5-min Rain = 0
KGO1 250705Z 15009KT 22/18 A2999 RMK A01 T02170181  RH  080%=      5-min Rain = 0
KGO1 250706Z 16009KT 22/18 A2999 RMK A01 T02170181  RH  080%=      5-min Rain = 0
KGO1 250707Z 16010KT 22/18 A2999 RMK A01 T02170182  RH  080%=      5-min Rain = 0
KGO1 250708Z 15009KT 22/18 A2999 RMK A01 T02170183  RH  081%=      5-min Rain = 0
KGO1 250709Z 14009KT 22/18 A2999 RMK A01 T02170183  RH  081%=      5-min Rain = 0
KGO1 250710Z 15009KT 22/18 A2999 RMK A01 T02170183  RH  081%=      5-min Rain = 0
KGO1 250711Z 15008KT 22/18 A2999 RMK A01 T02160182  RH  081%=      5-min Rain = 0
KGO1 250712Z 15007KT 22/18 A2999 RMK A01 T02150183  RH  082%=      5-min Rain = 0
KGO1 250713Z 15008KT 21/18 A2999 RMK A01 T02140184  RH  083%=      5-min Rain = 0
KGO1 250714Z 15008KT 21/19 A2999 RMK A01 T02140185  RH  084%=      5-min Rain = 0
KGO1 250715Z 15009KT 21/19 A2999 RMK A01 T02140185  RH  084%=      5-min Rain = 0
KGO1 250716Z 15009KT 21/19 A2999 RMK A01 T02140185  RH  084%=      5-min Rain = 0
KGO1 250717Z 15009KT 21/19 A2999 RMK A01 T02140186  RH  084%=      5-min Rain = 0
KGO1 250718Z 15010KT 21/19 A2999 RMK A01 T02140186  RH  084%=      5-min Rain = 0
KGO1 250719Z 15010KT 22/19 A2999 RMK A01 T02150187  RH  084%=      5-min Rain = 0
KGO1 250720Z 15009KT 22/19 A2999 RMK A01 T02150187  RH  084%=      5-min Rain = 0
KGO1 250721Z 15009KT 22/19 A2999 RMK A01 T02150187  RH  084%=      5-min Rain = 0
KGO1 250722Z 15010KT 22/19 A2999 RMK A01 T02150187  RH  084%=      5-min Rain = 0
KGO1 250723Z 15010KT 22/19 A2999 RMK A01 T02160189  RH  084%=      5-min Rain = 0
KGO1 250724Z 15011KT 22/19 A2999 RMK A01 T02160189  RH  084%=      5-min Rain = 0
KGO1 250725Z 15010KT 22/19 A2999 RMK A01 T02160189  RH  085%=      5-min Rain = 0
KGO1 250726Z 15011KT 22/19 A2999 RMK A01 T02160189  RH  085%=      5-min Rain = 0
KGO1 250727Z 15011KT 22/19 A2999 RMK A01 T02160189  RH  084%=      5-min Rain = 0
KGO1 250728Z 15008KT 22/19 A2999 RMK A01 T02160189  RH  084%=      5-min Rain = 0
KGO1 250729Z 15011KT 22/19 A2999 RMK A01 T02160189  RH  085%=      5-min Rain = 0
KGO1 250730Z 15011KT 22/19 A2999 RMK A01 T02160190  RH  085%=      5-min Rain = 0
KGO1 250731Z 15012KT 22/19 A2999 RMK A01 T02160190  RH  085%=      5-min Rain = 0
KGO1 250732Z 15011KT 22/19 A2999 RMK A01 T02160191  RH  086%=      5-min Rain = 0
KGO1 250733Z 15011KT 22/19 A2999 RMK A01 T02160191  RH  086%=      5-min Rain = 0
KGO1 250734Z 15009KT 22/19 A2999 RMK A01 T02160192  RH  086%=      5-min Rain = 0
KGO1 250735Z 15011KT 22/19 A2999 RMK A01 T02160192  RH  086%=      5-min Rain = 0
KGO1 250736Z 15011KT 22/19 A2999 RMK A01 T02160192  RH  086%=      5-min Rain = 0
KGO1 250737Z 15010KT 22/19 A2999 RMK A01 T02160192  RH  086%=      5-min Rain = 0
KGO1 250738Z 15011KT 22/19 A2999 RMK A01 T02150192  RH  087%=      5-min Rain = 0
KGO1 250739Z 14010KT 22/19 A2999 RMK A01 T02160193  RH  087%=      5-min Rain = 0
KGO1 250740Z 15010KT 22/19 A2999 RMK A01 T02160193  RH  087%=      5-min Rain = 0
KGO1 250741Z 15011KT 22/19 A2999 RMK A01 T02160193  RH  087%=      5-min Rain = 0
KGO1 250742Z 15010KT 22/19 A2999 RMK A01 T02150193  RH  087%=      5-min Rain = 0
KGO1 250743Z 15009KT 22/19 A2999 RMK A01 T02150194  RH  087%=      5-min Rain = 0
KGO1 250744Z 16009KT 22/19 A2999 RMK A01 T02150194  RH  087%=      5-min Rain = 0
KGO1 250745Z 14009KT 22/19 A2999 RMK A01 T02150194  RH  088%=      5-min Rain = 0
KGO1 250746Z 14011KT 22/19 A2999 RMK A01 T02150194  RH  088%=      5-min Rain = 0
KGO1 250747Z 14011KT 22/20 A2999 RMK A01 T02150195  RH  089%=      5-min Rain = 0
KGO1 250748Z 14010KT 21/20 A2999 RMK A01 T02140195  RH  089%=      5-min Rain = 0
KGO1 250749Z 14010KT 21/20 A2999 RMK A01 T02140195  RH  089%=      5-min Rain = 0
KGO1 250750Z 15010KT 21/20 A2999 RMK A01 T02140196  RH  089%=      5-min Rain = 0
KGO1 250751Z 15009KT 21/20 A2999 RMK A01 T02130196  RH  090%=      5-min Rain = 0
KGO1 250752Z 14011KT 21/20 A2999 RMK A01 T02130196  RH  090%=      5-min Rain = 0
KGO1 250753Z 15011KT 21/20 A2999 RMK A01 T02130197  RH  091%=      5-min Rain = 0
KGO1 250754Z 15010KT 21/20 A2999 RMK A01 T02120196  RH  091%=      5-min Rain = 0
KGO1 250755Z 15010KT 21/20 A2999 RMK A01 T02120197  RH  091%=      5-min Rain = 0
KGO1 250756Z 16009KT 21/20 A2999 RMK A01 T02120197  RH  092%=      5-min Rain = 0
KGO1 250757Z 14011G16KT 21/20 A2999 RMK A01 T02110198  RH  092%=      5-min Rain = 0
KGO1 250758Z 14012KT 21/20 A2999 RMK A01 T02110199  RH  092%=      5-min Rain = 0
KGO1 250759Z 14013KT 21/20 A2999 RMK A01 T02110198  RH  092%=      5-min Rain = 0
KGO1 250800Z 14013KT 21/20 A2999 RMK A01 T02110199  RH  093%=      5-min Rain = 0
KGO1 250801Z 14011KT 21/20 A2999 RMK A01 T02110199  RH  093%=      5-min Rain = 0
KGO1 250802Z 14010KT 21/20 A2999 RMK A01 T02110198  RH  093%=      5-min Rain = 0
KGO1 250803Z 14012KT 21/20 A2999 RMK A01 T02110199  RH  093%=      5-min Rain = 0
KGO1 250804Z 14010KT 21/20 A2999 RMK A01 T02110199  RH  093%=      5-min Rain = 0
KGO1 250805Z 14011KT 21/20 A2999 RMK A01 T02110199  RH  093%=      5-min Rain = 0
KGO1 250806Z 14011KT 21/20 A2999 RMK A01 T02110199  RH  093%=      5-min Rain = 0
KGO1 250807Z 14010KT 21/20 A2999 RMK A01 T02100199  RH  093%=      5-min Rain = 0
KGO1 250808Z 15009KT 21/20 A2999 RMK A01 T02100200  RH  094%=      5-min Rain = 0
KGO1 250809Z 15010KT 21/20 A2999 RMK A01 T02100200  RH  094%=      5-min Rain = 0
KGO1 250810Z 15009KT 21/20 A2999 RMK A01 T02100200  RH  094%=      5-min Rain = 0
KGO1 250811Z 14009KT 21/20 A2999 RMK A01 T02100200  RH  094%=      5-min Rain = 0
KGO1 250812Z 15010KT 21/20 A2999 RMK A01 T02100200  RH  094%=      5-min Rain = 0
KGO1 250813Z 15009KT 21/20 A2999 RMK A01 T02110201  RH  094%=      5-min Rain = 0
KGO1 250814Z 15009KT 21/20 A2999 RMK A01 T02110201  RH  094%=      5-min Rain = 0
KGO1 250815Z 15008KT 21/20 A2999 RMK A01 T02110201  RH  094%=      5-min Rain = 0
KGO1 250816Z 16009KT 21/20 A2999 RMK A01 T02110201  RH  094%=      5-min Rain = 0
KGO1 250817Z 16009KT 21/20 A2999 RMK A01 T02110201  RH  094%=      5-min Rain = 0
KGO1 250818Z 16009KT 21/20 A2999 RMK A01 T02120201  RH  094%=      5-min Rain = 0
KGO1 250819Z 16008KT 21/20 A2999 RMK A01 T02120201  RH  094%=      5-min Rain = 0
KGO1 250820Z 16008KT 21/20 A2999 RMK A01 T02120201  RH  094%=      5-min Rain = 0
KGO1 250821Z 16009KT 21/20 A2999 RMK A01 T02120201  RH  094%=      5-min Rain = 0
KGO1 250822Z 16008KT 21/20 A2999 RMK A01 T02120201  RH  094%=      5-min Rain = 0
KGO1 250823Z 16009KT 21/20 A2999 RMK A01 T02120202  RH  094%=      5-min Rain = 0
KGO1 250824Z 16009KT 21/20 A2999 RMK A01 T02120202  RH  094%=      5-min Rain = 0
KGO1 250825Z 15009KT 21/20 A2999 RMK A01 T02120202  RH  094%=      5-min Rain = 0
KGO1 250826Z 15010KT 21/20 A2999 RMK A01 T02120202  RH  094%=      5-min Rain = 0
KGO1 250827Z 16009KT 21/20 A2999 RMK A01 T02110202  RH  094%=      5-min Rain = 0
KGO1 250828Z 16010KT 21/20 A2999 RMK A01 T02110202  RH  094%=      5-min Rain = 0
KGO1 250829Z 15009KT 21/20 A2999 RMK A01 T02100202  RH  095%=      5-min Rain = 0
KGO1 250830Z 15007KT 21/20 A2999 RMK A01 T02100202  RH  095%=      5-min Rain = 0
KGO1 250831Z 15007KT 21/20 A2999 RMK A01 T02100202  RH  095%=      5-min Rain = 0
KGO1 250832Z 16009KT 21/20 A2999 RMK A01 T02090202  RH  095%=      5-min Rain = 0
KGO1 250833Z 15008KT 21/20 A2999 RMK A01 T02080201  RH  096%=      5-min Rain = 0
KGO1 250834Z 16009KT 21/20 A2999 RMK A01 T02080202  RH  096%=      5-min Rain = 0
KGO1 250835Z 15010KT 21/20 A2999 RMK A01 T02080202  RH  096%=      5-min Rain = 0
KGO1 250836Z 16010KT 21/20 A2999 RMK A01 T02080202  RH  096%=      5-min Rain = 0
KGO1 250837Z 15010KT 21/20 A2999 RMK A01 T02080202  RH  097%=      5-min Rain = 0
KGO1 250838Z 15009KT 21/20 A2999 RMK A01 T02080202  RH  097%=      5-min Rain = 0
KGO1 250839Z 16008KT 21/20 A2999 RMK A01 T02080203  RH  097%=      5-min Rain = 0
KGO1 250840Z 16010KT 21/20 A2999 RMK A01 T02080203  RH  097%=      5-min Rain = 0
KGO1 250841Z 15010KT 21/20 A2999 RMK A01 T02070203  RH  097%=      5-min Rain = 0
KGO1 250842Z 15009KT 21/20 A2999 RMK A01 T02080203  RH  097%=      5-min Rain = 0
KGO1 250843Z 15009KT 21/20 A2999 RMK A01 T02080203  RH  097%=      5-min Rain = 0
KGO1 250844Z 16008KT 21/20 A2999 RMK A01 T02070203  RH  097%=      5-min Rain = 0
KGO1 250845Z 16007KT 21/20 A2999 RMK A01 T02070203  RH  097%=      5-min Rain = 0
KGO1 250846Z 16008KT 21/20 A2999 RMK A01 T02060202  RH  098%=      5-min Rain = 0
KGO1 250847Z 16008KT 21/20 A2999 RMK A01 T02060203  RH  098%=      5-min Rain = 0
KGO1 250848Z 16008KT 21/20 A2999 RMK A01 T02060203  RH  098%=      5-min Rain = 0
KGO1 250849Z 15008KT 21/20 A2999 RMK A01 T02060203  RH  098%=      5-min Rain = 0
KGO1 250850Z 15009KT 21/20 A2999 RMK A01 T02060204  RH  098%=      5-min Rain = 0
KGO1 250851Z 16009KT 21/20 A2999 RMK A01 T02060204  RH  099%=      5-min Rain = 0
KGO1 250852Z 15010KT 21/20 A2999 RMK A01 T02060204  RH  099%=      5-min Rain = 0
KGO1 250853Z 15010KT 21/21 A2999 RMK A01 T02070205  RH  099%=      5-min Rain = 0
KGO1 250854Z 15010KT 21/20 A2999 RMK A01 T02070204  RH  098%=      5-min Rain = 0
KGO1 250855Z 15008KT 21/20 A2999 RMK A01 T02070204  RH  098%=      5-min Rain = 0
KGO1 250856Z 15009KT 21/20 A2999 RMK A01 T02070204  RH  098%=      5-min Rain = 0
KGO1 250857Z 16008KT 21/20 A2999 RMK A01 T02070204  RH  098%=      5-min Rain = 0
KGO1 250858Z 15007KT 21/21 A2999 RMK A01 T02080205  RH  098%=      5-min Rain = 0
KGO1 250859Z 15008KT 21/21 A2999 RMK A01 T02080205  RH  098%=      5-min Rain = 0
KGO1 250900Z 15008KT 21/21 A2999 RMK A01 T02080205  RH  098%=      5-min Rain = 0
KGO1 250901Z 15007KT 21/21 A2999 RMK A01 T02080205  RH  098%=      5-min Rain = 0
KGO1 250902Z 15007KT 21/21 A2999 RMK A01 T02080205  RH  098%=      5-min Rain = 0
KGO1 250903Z 15007KT 21/21 A2999 RMK A01 T02080205  RH  098%=      5-min Rain = 0
KGO1 250904Z 16007KT 21/21 A2999 RMK A01 T02080205  RH  098%=      5-min Rain = 0
KGO1 250905Z 15008KT 21/21 A2999 RMK A01 T02080205  RH  098%=      5-min Rain = 0
KGO1 250906Z 16009KT 21/21 A2999 RMK A01 T02080205  RH  098%=      5-min Rain = 0
KGO1 250907Z 15009KT 21/21 A2999 RMK A01 T02080205  RH  099%=      5-min Rain = 0
KGO1 250908Z 15008KT 21/21 A2999 RMK A01 T02080206  RH  099%=      5-min Rain = 0
KGO1 250909Z 16009KT 21/21 A2999 RMK A01 T02080206  RH  099%=      5-min Rain = 0
KGO1 250910Z 15009KT 21/21 A2999 RMK A01 T02080206  RH  099%=      5-min Rain = 0
KGO1 250911Z 15007KT 21/21 A2999 RMK A01 T02080206  RH  099%=      5-min Rain = 0
KGO1 250912Z 15008KT 21/21 A2999 RMK A01 T02070206  RH  099%=      5-min Rain = 0
KGO1 250913Z 16007KT 21/21 A2999 RMK A01 T02070206  RH  099%=      5-min Rain = 0
KGO1 250914Z 15009KT 21/21 A2999 RMK A01 T02070206  RH  099%=      5-min Rain = 0
KGO1 250915Z 16008KT 21/21 A2999 RMK A01 T02070206  RH  099%=      5-min Rain = 0
KGO1 250916Z 16008KT 21/21 A2999 RMK A01 T02070206  RH  099%=      5-min Rain = 0
KGO1 250917Z 16008KT 21/21 A2999 RMK A01 T02070206  RH  099%=      5-min Rain = 0
KGO1 250918Z 15008KT 21/21 A2999 RMK A01 T02070206  RH  099%=      5-min Rain = 0
KGO1 250919Z 16008KT 21/21 A2999 RMK A01 T02070207  RH  099%=      5-min Rain = 0
KGO1 250920Z 16008KT 21/21 A2999 RMK A01 T02070207  RH  100%=      5-min Rain = 0
KGO1 250921Z 15008KT 21/21 A2999 RMK A01 T02070207  RH  100%=      5-min Rain = 0
KGO1 250922Z 15008KT 21/21 A2999 RMK A01 T02070207  RH  100%=      5-min Rain = 0
KGO1 250923Z 15008KT 21/21 A2999 RMK A01 T02070207  RH  100%=      5-min Rain = 0
KGO1 250924Z 15008KT 21/21 A2999 RMK A01 T02080207  RH  100%=      5-min Rain = 0
KGO1 250925Z 15008KT 21/21 A2999 RMK A01 T02080207  RH  100%=      5-min Rain = 0
KGO1 250926Z 15007KT 21/21 A2999 RMK A01 T02080208  RH  100%=      5-min Rain = 0
KGO1 250927Z 15006KT 21/21 A2999 RMK A01 T02080207  RH  100%=      5-min Rain = 0
KGO1 250928Z 16009KT 21/21 A2999 RMK A01 T02080207  RH  099%=      5-min Rain = 0
KGO1 250929Z 16007KT 21/21 A2999 RMK A01 T02080207  RH  099%=      5-min Rain = 0
KGO1 250930Z 15007KT 21/21 A2999 RMK A01 T02080207  RH  099%=      5-min Rain = 0
KGO1 250931Z 15007KT 21/21 A2999 RMK A01 T02080207  RH  099%=      5-min Rain = 0
KGO1 250932Z 15007KT 21/21 A2999 RMK A01 T02080207  RH  099%=      5-min Rain = 0
KGO1 250933Z 15008KT 21/21 A30 RMK A01 T02080207  RH  099%=      5-min Rain = 0
KGO1 250934Z 15008KT 21/21 A30 RMK A01 T02080207  RH  099%=      5-min Rain = 0
KGO1 250935Z 15007KT 21/21 A30 RMK A01 T02080207  RH  099%=      5-min Rain = 0
KGO1 250936Z 15006KT 21/21 A30 RMK A01 T02080207  RH  099%=      5-min Rain = 0
KGO1 250937Z 15008KT 21/21 A30 RMK A01 T02080207  RH  100%=      5-min Rain = 0
KGO1 250938Z 15010KT 21/21 A30 RMK A01 T02080208  RH  100%=      5-min Rain = 0
KGO1 250939Z 15009KT 21/21 A30 RMK A01 T02090208  RH  100%=      5-min Rain = 0
KGO1 250940Z 15007KT 21/21 A30 RMK A01 T02090208  RH  100%=      5-min Rain = 0
KGO1 250941Z 15008KT 21/21 A30 RMK A01 T02080208  RH  100%=      5-min Rain = 0
KGO1 250942Z 15010KT 21/21 A30 RMK A01 T02090208  RH  100%=      5-min Rain = 0
KGO1 250943Z 15009KT 21/21 A30 RMK A01 T02090208  RH  100%=      5-min Rain = 0
KGO1 250944Z 16008KT 21/21 A30 RMK A01 T02090208  RH  100%=      5-min Rain = 0
KGO1 250945Z 16008KT 21/21 A30 RMK A01 T02080208  RH  100%=      5-min Rain = 0
KGO1 250946Z 16007KT 21/21 A30 RMK A01 T02090208  RH  100%=      5-min Rain = 0
KGO1 250947Z 16007KT 21/21 A30 RMK A01 T02090208  RH  100%=      5-min Rain = 0
KGO1 250948Z 16006KT 21/21 A30 RMK A01 T02090208  RH  100%=      5-min Rain = 0
KGO1 250949Z 15007KT 21/21 A2999 RMK A01 T02080208  RH  100%=      5-min Rain = 0
KGO1 250950Z 15008KT 21/21 A2999 RMK A01 T02080208  RH  100%=      5-min Rain = 0
KGO1 250951Z 15008KT 21/21 A2999 RMK A01 T02080208  RH  100%=      5-min Rain = 0
KGO1 250952Z 15008KT 21/21 A30 RMK A01 T02070207  RH  100%=      5-min Rain = 0
KGO1 250953Z 15007KT 21/21 A30 RMK A01 T02070207  RH  100%=      5-min Rain = 0
KGO1 250954Z 15008KT 21/21 A30 RMK A01 T02060206  RH  100%=      5-min Rain = 0
KGO1 250955Z 15008KT 21/21 A30 RMK A01 T02050205  RH  100%=      5-min Rain = 0
KGO1 250956Z 15008KT 21/21 A30 RMK A01 T02050205  RH  100%=      5-min Rain = 0
KGO1 250957Z 15008KT 21/21 A30 RMK A01 T02050205  RH  100%=      5-min Rain = 0
KGO1 250958Z 15009KT 21/21 A30 RMK A01 T02050205  RH  100%=      5-min Rain = 0
KGO1 250959Z 15008KT 20/21 A30 RMK A01 T02040205  RH  100%=      5-min Rain = 0
KGO1 251000Z 15007KT 20/20 A30 RMK A01 T02040204  RH  100%=      5-min Rain = 0
KGO1 251001Z 15007KT 20/20 A30 RMK A01 T02040204  RH  100%=      5-min Rain = 0
KGO1 251002Z 14007KT 20/20 A30 RMK A01 T02030204  RH  100%=      5-min Rain = 0
KGO1 251003Z 14008KT 20/20 A30 RMK A01 T02030203  RH  100%=      5-min Rain = 0
KGO1 251004Z 15008KT 20/20 A30 RMK A01 T02030203  RH  100%=      5-min Rain = 0
KGO1 251005Z 14008KT 20/20 A30 RMK A01 T02030203  RH  100%=      5-min Rain = 0
KGO1 251006Z 15007KT 20/20 A30 RMK A01 T02020203  RH  100%=      5-min Rain = 0
KGO1 251007Z 14007KT 20/20 A30 RMK A01 T02030203  RH  100%=      5-min Rain = 0
KGO1 251008Z 14008KT 20/20 A30 RMK A01 T02030203  RH  100%=      5-min Rain = 0
KGO1 251009Z 14008KT 20/20 A30 RMK A01 T02020202  RH  100%=      5-min Rain = 0
KGO1 251010Z 14008KT 20/20 A30 RMK A01 T02020202  RH  100%=      5-min Rain = 0
KGO1 251011Z 14007KT 20/20 A30 RMK A01 T02020202  RH  100%=      5-min Rain = 0
KGO1 251012Z 14007KT 20/20 A30 RMK A01 T02020202  RH  100%=      5-min Rain = 0
KGO1 251013Z 14007KT 20/20 A30 RMK A01 T02020202  RH  100%=      5-min Rain = 0
KGO1 251014Z 14007KT 20/20 A30 RMK A01 T02020202  RH  100%=      5-min Rain = 0
KGO1 251015Z 14007KT 20/20 A30 RMK A01 T02020202  RH  100%=      5-min Rain = 0
KGO1 251016Z 15007KT 20/20 A30 RMK A01 T02020202  RH  100%=      5-min Rain = 0
KGO1 251017Z 15007KT 20/20 A30 RMK A01 T02020202  RH  100%=      5-min Rain = 0
KGO1 251018Z 15008KT 20/20 A30 RMK A01 T02020202  RH  100%=      5-min Rain = 0
KGO1 251019Z 15008KT 20/20 A30 RMK A01 T02020202  RH  100%=      5-min Rain = 0
KGO1 251020Z 15007KT 20/20 A30 RMK A01 T02020202  RH  100%=      5-min Rain = 0
KGO1 251021Z 15008KT 20/20 A30 RMK A01 T02010202  RH  100%=      5-min Rain = 0
KGO1 251022Z 15007KT 20/20 A30 RMK A01 T02010201  RH  100%=      5-min Rain = 0
KGO1 251023Z 14008KT 20/20 A30 RMK A01 T02010201  RH  100%=      5-min Rain = 0
KGO1 251024Z 15007KT 20/20 A30 RMK A01 T02010202  RH  100%=      5-min Rain = 0
KGO1 251025Z 14007KT 20/20 A30 RMK A01 T02010201  RH  100%=      5-min Rain = 0
KGO1 251026Z 15007KT 20/20 A30 RMK A01 T02010201  RH  100%=      5-min Rain = 0
KGO1 251027Z 15007KT 20/20 A30 RMK A01 T02010201  RH  100%=      5-min Rain = 0
KGO1 251028Z 15006KT 20/20 A30 RMK A01 T02010201  RH  100%=      5-min Rain = 0
KGO1 251029Z 14007KT 20/20 A30 RMK A01 T02010201  RH  100%=      5-min Rain = 0
KGO1 251030Z 14007KT 20/20 A30 RMK A01 T02010201  RH  100%=      5-min Rain = 0
KGO1 251031Z 14007KT 20/20 A30 RMK A01 T02010201  RH  100%=      5-min Rain = 0
KGO1 251032Z 14007KT 20/20 A30 RMK A01 T02010201  RH  100%=      5-min Rain = 0
KGO1 251033Z 14007KT 20/20 A30 RMK A01 T02010201  RH  100%=      5-min Rain = 0
KGO1 251034Z 14007KT 20/20 A30 RMK A01 T02010201  RH  100%=      5-min Rain = 0
KGO1 251035Z 15007KT 20/20 A30 RMK A01 T02010201  RH  100%=      5-min Rain = 0
KGO1 251036Z 15008KT 20/20 A30 RMK A01 T02010201  RH  100%=      5-min Rain = 0
KGO1 251037Z 14008KT 20/20 A30 RMK A01 T02010202  RH  100%=      5-min Rain = 0
KGO1 251038Z 14007KT 20/20 A30 RMK A01 T02010202  RH  100%=      5-min Rain = 0
KGO1 251039Z 14007KT 20/20 A30 RMK A01 T02020202  RH  100%=      5-min Rain = 0
KGO1 251040Z 15006KT 20/20 A30 RMK A01 T02020202  RH  100%=      5-min Rain = 0
KGO1 251041Z 15008KT 20/20 A30 RMK A01 T02020202  RH  100%=      5-min Rain = 0
KGO1 251042Z 14007KT 20/20 A30 RMK A01 T02020202  RH  100%=      5-min Rain = 0
KGO1 251043Z 14007KT 20/20 A30 RMK A01 T02020202  RH  100%=      5-min Rain = 0
KGO1 251044Z 15007KT 20/20 A30 RMK A01 T02020202  RH  100%=      5-min Rain = 0
KGO1 251045Z 14007KT 20/20 A30 RMK A01 T02020203  RH  100%=      5-min Rain = 0
KGO1 251046Z 14007KT 20/20 A30 RMK A01 T02020203  RH  100%=      5-min Rain = 0
KGO1 251047Z 14006KT 20/20 A30 RMK A01 T02030203  RH  100%=      5-min Rain = 0
KGO1 251048Z 14006KT 20/20 A30 RMK A01 T02020202  RH  100%=      5-min Rain = 0
KGO1 251049Z 15006KT 20/20 A30 RMK A01 T02020202  RH  100%=      5-min Rain = 0
KGO1 251050Z 15007KT 20/20 A30 RMK A01 T02020202  RH  100%=      5-min Rain = 0
KGO1 251051Z 14007KT 20/20 A30 RMK A01 T02020202  RH  100%=      5-min Rain = 0
KGO1 251052Z 14006KT 20/20 A30 RMK A01 T02020202  RH  100%=      5-min Rain = 0
KGO1 251053Z 15007KT 20/20 A30 RMK A01 T02020202  RH  100%=      5-min Rain = 0
KGO1 251054Z 15007KT 20/20 A30 RMK A01 T02010202  RH  100%=      5-min Rain = 0
KGO1 251055Z 15006KT 20/20 A30 RMK A01 T02010201  RH  100%=      5-min Rain = 0
KGO1 251056Z 15008KT 20/20 A30 RMK A01 T02010201  RH  100%=      5-min Rain = 0
KGO1 251057Z 15008KT 20/20 A30 RMK A01 T02010201  RH  100%=      5-min Rain = 0
KGO1 251058Z 15007KT 20/20 A30 RMK A01 T02020202  RH  100%=      5-min Rain = 0
KGO1 251059Z 14007KT 20/20 A30 RMK A01 T02020202  RH  100%=      5-min Rain = 0
KGO1 251100Z 14008KT 20/20 A30 RMK A01 T02020202  RH  100%=      5-min Rain = 0
KGO1 251101Z 15006KT 20/20 A30 RMK A01 T02020202  RH  100%=      5-min Rain = 0
KGO1 251102Z 15008KT 20/20 A30 RMK A01 T02020202  RH  100%=      5-min Rain = 0
KGO1 251103Z 15008KT 20/20 A30 RMK A01 T02020202  RH  100%=      5-min Rain = 0
KGO1 251104Z 14007KT 20/20 A30 RMK A01 T02010202  RH  100%=      5-min Rain = 0
KGO1 251105Z 14007KT 20/20 A30 RMK A01 T02020202  RH  100%=      5-min Rain = 0
KGO1 251106Z 15008KT 20/20 A30 RMK A01 T02020202  RH  100%=      5-min Rain = 0
KGO1 251107Z 15008KT 20/20 A30 RMK A01 T02010202  RH  100%=      5-min Rain = 0
KGO1 251108Z 14008KT 20/20 A30 RMK A01 T02020202  RH  100%=      5-min Rain = 0
KGO1 251109Z 15008KT 20/20 A30 RMK A01 T02020202  RH  100%=      5-min Rain = 0
KGO1 251110Z 15008KT 20/20 A30 RMK A01 T02020202  RH  100%=      5-min Rain = 0
KGO1 251111Z 14008KT 20/20 A30 RMK A01 T02030203  RH  100%=      5-min Rain = 0
KGO1 251112Z 14009KT 20/20 A30 RMK A01 T02020203  RH  100%=      5-min Rain = 0
KGO1 251113Z 15009KT 20/20 A30 RMK A01 T02030203  RH  100%=      5-min Rain = 0
KGO1 251114Z 14008KT 20/20 A30 RMK A01 T02030203  RH  100%=      5-min Rain = 0
KGO1 251115Z 14007KT 20/20 A30 RMK A01 T02030203  RH  100%=      5-min Rain = 0
KGO1 251116Z 14007KT 20/20 A30 RMK A01 T02020202  RH  100%=      5-min Rain = 0
KGO1 251117Z 14008KT 20/20 A30 RMK A01 T02020202  RH  100%=      5-min Rain = 0
KGO1 251118Z 14007KT 20/20 A3001 RMK A01 T02020202  RH  100%=      5-min Rain = 0
KGO1 251119Z 14007KT 20/20 A3001 RMK A01 T02010201  RH  100%=      5-min Rain = 0
KGO1 251120Z 14008KT 20/20 A3001 RMK A01 T02010201  RH  100%=      5-min Rain = 0
KGO1 251121Z 13007KT 20/20 A3001 RMK A01 T02010201  RH  100%=      5-min Rain = 0
KGO1 251122Z 13008KT 20/20 A3001 RMK A01 T02010201  RH  100%=      5-min Rain = 0
KGO1 251123Z 13007KT 20/20 A3001 RMK A01 T02010201  RH  100%=      5-min Rain = 0
KGO1 251124Z 14007KT 20/20 A3001 RMK A01 T02010201  RH  100%=      5-min Rain = 0
KGO1 251125Z 14008KT 20/20 A3001 RMK A01 T02010201  RH  100%=      5-min Rain = 0
KGO1 251126Z 14008KT 20/20 A3001 RMK A01 T02010201  RH  100%=      5-min Rain = 0
KGO1 251127Z 14007KT 20/20 A3001 RMK A01 T02010202  RH  100%=      5-min Rain = 0
KGO1 251128Z 14010KT 20/20 A3001 RMK A01 T02020202  RH  100%=      5-min Rain = 0
KGO1 251129Z 14007KT 20/20 A3001 RMK A01 T02020202  RH  100%=      5-min Rain = 0
KGO1 251130Z 14008KT 20/20 A3001 RMK A01 T02010202  RH  100%=      5-min Rain = 0
KGO1 251131Z 14008KT 20/20 A3001 RMK A01 T02010201  RH  100%=      5-min Rain = 0
KGO1 251132Z 15007KT 20/20 A3001 RMK A01 T02010202  RH  100%=      5-min Rain = 0
KGO1 251133Z 15007KT 20/20 A3001 RMK A01 T02010202  RH  100%=      5-min Rain = 0
KGO1 251134Z 15008KT 20/20 A3001 RMK A01 T02010202  RH  100%=      5-min Rain = 0
KGO1 251135Z 16008KT 20/20 A3001 RMK A01 T02020202  RH  100%=      5-min Rain = 0
KGO1 251136Z 15007KT 20/20 A3001 RMK A01 T02020202  RH  100%=      5-min Rain = 0
KGO1 251137Z 15008KT 20/20 A3001 RMK A01 T02020202  RH  100%=      5-min Rain = 0
KGO1 251138Z 15008KT 20/20 A3001 RMK A01 T02020202  RH  100%=      5-min Rain = 0
KGO1 251139Z 15008KT 20/20 A3002 RMK A01 T02020202  RH  100%=      5-min Rain = 0
KGO1 251140Z 15008KT 20/20 A3002 RMK A01 T02020202  RH  100%=      5-min Rain = 0
KGO1 251141Z 15009KT 20/20 A3002 RMK A01 T02020202  RH  100%=      5-min Rain = 0
KGO1 251142Z 15010KT 20/20 A3002 RMK A01 T02010201  RH  100%=      5-min Rain = 0
KGO1 251143Z 15009KT 20/20 A3002 RMK A01 T02010201  RH  100%=      5-min Rain = 0
KGO1 251144Z 15010KT 20/20 A3002 RMK A01 T02010201  RH  100%=      5-min Rain = 0
KGO1 251145Z 15009KT 20/20 A3002 RMK A01 T02010201  RH  100%=      5-min Rain = 0
KGO1 251146Z 15009KT 20/20 A3002 RMK A01 T02010201  RH  100%=      5-min Rain = 0
KGO1 251147Z 15008KT 20/20 A3002 RMK A01 T02000200  RH  100%=      5-min Rain = 0
KGO1 251148Z 15008KT 20/20 A3002 RMK A01 T02000200  RH  100%=      5-min Rain = 0
KGO1 251149Z 15009KT 20/20 A3002 RMK A01 T02000200  RH  100%=      5-min Rain = 0
KGO1 251150Z 15009KT 20/20 A3002 RMK A01 T02010201  RH  100%=      5-min Rain = 0
KGO1 251151Z 16009KT 20/20 A3003 RMK A01 T02010201  RH  100%=      5-min Rain = 0
KGO1 251152Z 16008KT 20/20 A3003 RMK A01 T02010202  RH  100%=      5-min Rain = 0
KGO1 251153Z 16009KT 20/20 A3003 RMK A01 T02020202  RH  100%=      5-min Rain = 0
KGO1 251154Z 17009KT 20/20 A3003 RMK A01 T02020203  RH  100%=      5-min Rain = 0
KGO1 251155Z 17009KT 20/20 A3003 RMK A01 T02020203  RH  100%=      5-min Rain = 0
KGO1 251156Z 17009KT 20/20 A3003 RMK A01 T02020202  RH  100%=      5-min Rain = 0
KGO1 251157Z 16009KT 20/20 A3003 RMK A01 T02020202  RH  100%=      5-min Rain = 0
KGO1 251158Z 16009KT 20/20 A3003 RMK A01 T02020202  RH  100%=      5-min Rain = 0
KGO1 251159Z 16008KT 20/20 A3003 RMK A01 T02010202  RH  100%=      5-min Rain = 0
KGO1 251200Z 17009KT 20/20 A3003 RMK A01 T02020202  RH  100%=      5-min Rain = 0
KGO1 251201Z 16007KT 20/20 A3003 RMK A01 T02010202  RH  100%=      5-min Rain = 0
KGO1 251202Z 16007KT 20/20 A3003 RMK A01 T02010201  RH  100%=      5-min Rain = 0
KGO1 251203Z 16008KT 20/20 A3003 RMK A01 T02010201  RH  100%=      5-min Rain = 0
KGO1 251204Z 16008KT 20/20 A3003 RMK A01 T02010201  RH  100%=      5-min Rain = 0
KGO1 251205Z 16007KT 20/20 A3003 RMK A01 T02010201  RH  100%=      5-min Rain = 0
KGO1 251206Z 16007KT 20/20 A3003 RMK A01 T02010201  RH  100%=      5-min Rain = 0
KGO1 251207Z 16008KT 20/20 A3003 RMK A01 T02020202  RH  100%=      5-min Rain = 0
KGO1 251208Z 16010KT 20/20 A3003 RMK A01 T02020202  RH  100%=      5-min Rain = 0
KGO1 251209Z 16010KT 20/20 A3003 RMK A01 T02020202  RH  100%=      5-min Rain = 0
KGO1 251210Z 17010KT 20/20 A3004 RMK A01 T02020202  RH  100%=      5-min Rain = 0
KGO1 251211Z 16008KT 20/20 A3004 RMK A01 T02020202  RH  100%=      5-min Rain = 0
KGO1 251212Z 16008KT 20/20 A3004 RMK A01 T02020202  RH  100%=      5-min Rain = 0
KGO1 251213Z 16007KT 20/20 A3004 RMK A01 T02030203  RH  100%=      5-min Rain = 0
KGO1 251214Z 16008KT 20/20 A3004 RMK A01 T02020203  RH  100%=      5-min Rain = 0
KGO1 251215Z 16007KT 20/20 A3004 RMK A01 T02030203  RH  100%=      5-min Rain = 0
KGO1 251216Z 16007KT 20/20 A3004 RMK A01 T02030203  RH  100%=      5-min Rain = 0
KGO1 251217Z 16008KT 20/20 A3004 RMK A01 T02030203  RH  100%=      5-min Rain = 0
KGO1 251218Z 16008KT 20/20 A3004 RMK A01 T02030203  RH  100%=      5-min Rain = 0
KGO1 251219Z 16008KT 20/20 A3004 RMK A01 T02030203  RH  100%=      5-min Rain = 0
KGO1 251220Z 16007KT 20/20 A3004 RMK A01 T02030203  RH  100%=      5-min Rain = 0
KGO1 251221Z 16007KT 20/20 A3004 RMK A01 T02030203  RH  100%=      5-min Rain = 0
KGO1 251222Z 16007KT 20/20 A3004 RMK A01 T02030203  RH  100%=      5-min Rain = 0
KGO1 251223Z 16008KT 20/20 A3004 RMK A01 T02030203  RH  100%=      5-min Rain = 0
KGO1 251224Z 16008KT 20/20 A3004 RMK A01 T02030203  RH  100%=      5-min Rain = 0
KGO1 251225Z 16010KT 20/20 A3004 RMK A01 T02030203  RH  100%=      5-min Rain = 0
KGO1 251226Z 17011KT 20/20 A3004 RMK A01 T02030203  RH  100%=      5-min Rain = 0
KGO1 251227Z 17010KT 20/20 A3004 RMK A01 T02030203  RH  100%=      5-min Rain = 0
KGO1 251228Z 17012KT 20/20 A3004 RMK A01 T02020202  RH  100%=      5-min Rain = 0
KGO1 251229Z 17010KT 20/20 A3004 RMK A01 T02020202  RH  100%=      5-min Rain = 0
KGO1 251230Z 18008KT 20/20 A3004 RMK A01 T02020202  RH  100%=      5-min Rain = 0
KGO1 251231Z 17008KT 20/20 A3004 RMK A01 T02020202  RH  100%=      5-min Rain = 0
KGO1 251232Z 17009KT 20/20 A3004 RMK A01 T02020202  RH  100%=      5-min Rain = 0
KGO1 251233Z 17009KT 20/20 A3004 RMK A01 T02010201  RH  100%=      5-min Rain = 0
KGO1 251234Z 17009KT 20/20 A3004 RMK A01 T02010201  RH  100%=      5-min Rain = 0
KGO1 251235Z 17010KT 20/20 A3004 RMK A01 T02010201  RH  100%=      5-min Rain = 0
KGO1 251236Z 17010KT 20/20 A3004 RMK A01 T02000201  RH  100%=      5-min Rain = 0
KGO1 251237Z 17010KT 20/20 A3004 RMK A01 T02000200  RH  100%=      5-min Rain = 0
KGO1 251238Z 17008KT 20/20 A3004 RMK A01 T02000200  RH  100%=      5-min Rain = 0
KGO1 251239Z 17010KT 20/20 A3004 RMK A01 T02000200  RH  100%=      5-min Rain = 0
KGO1 251240Z 16008KT 20/20 A3004 RMK A01 T02000200  RH  100%=      5-min Rain = 0
KGO1 251241Z 16008KT 20/20 A3004 RMK A01 T01990200  RH  100%=      5-min Rain = 0
KGO1 251242Z 17009KT 20/20 A3004 RMK A01 T01990199  RH  100%=      5-min Rain = 0
KGO1 251243Z 16009KT 20/20 A3004 RMK A01 T01990200  RH  100%=      5-min Rain = 0
KGO1 251244Z 16010KT 20/20 A3004 RMK A01 T02010201  RH  100%=      5-min Rain = 0
KGO1 251245Z 17009KT 20/20 A3004 RMK A01 T02020202  RH  100%=      5-min Rain = 0
KGO1 251246Z 16010KT 20/20 A3004 RMK A01 T02020202  RH  100%=      5-min Rain = 0
KGO1 251247Z 16010KT 20/20 A3004 RMK A01 T02020202  RH  100%=      5-min Rain = 0
KGO1 251248Z 16007KT 20/20 A3004 RMK A01 T02020202  RH  100%=      5-min Rain = 0
KGO1 251249Z 17007KT 20/20 A3004 RMK A01 T02030203  RH  100%=      5-min Rain = 0
KGO1 251250Z 17007KT 20/20 A3004 RMK A01 T02030203  RH  100%=      5-min Rain = 0
KGO1 251251Z 16007KT 20/20 A3004 RMK A01 T02030203  RH  100%=      5-min Rain = 0
KGO1 251252Z 16009KT 20/20 A3004 RMK A01 T02030202  RH  100%=      5-min Rain = 0
KGO1 251253Z 17007KT 20/20 A3004 RMK A01 T02030202  RH  099%=      5-min Rain = 0
KGO1 251254Z 17007KT 20/20 A3004 RMK A01 T02030202  RH  099%=      5-min Rain = 0
KGO1 251255Z 15007KT 20/20 A3004 RMK A01 T02030201  RH  099%=      5-min Rain = 0
KGO1 251256Z 16008KT 20/20 A3004 RMK A01 T02040202  RH  099%=      5-min Rain = 0
KGO1 251257Z 16007KT 20/20 A3004 RMK A01 T02040202  RH  099%=      5-min Rain = 0
KGO1 251258Z 16007KT 20/20 A3004 RMK A01 T02040202  RH  098%=      5-min Rain = 0
KGO1 251259Z 16007KT 21/20 A3004 RMK A01 T02050202  RH  098%=      5-min Rain = 0
KGO1 251300Z 16008KT 21/20 A3004 RMK A01 T02050201  RH  097%=      5-min Rain = 0
KGO1 251301Z 16008KT 21/20 A3004 RMK A01 T02060200  RH  096%=      5-min Rain = 0
KGO1 251302Z 16007KT 21/20 A3004 RMK A01 T02070200  RH  096%=      5-min Rain = 0
KGO1 251303Z 15008KT 21/20 A3004 RMK A01 T02070201  RH  096%=      5-min Rain = 0
KGO1 251304Z 15008KT 21/20 A3004 RMK A01 T02080200  RH  095%=      5-min Rain = 0
KGO1 251305Z 16006KT 21/20 A3004 RMK A01 T02080200  RH  095%=      5-min Rain = 0
KGO1 251306Z 16006KT 21/20 A3004 RMK A01 T02090201  RH  095%=      5-min Rain = 0
KGO1 251307Z 16006KT 21/20 A3004 RMK A01 T02090199  RH  094%=      5-min Rain = 0
KGO1 251308Z 16006KT 21/20 A3004 RMK A01 T02090199  RH  094%=      5-min Rain = 0
KGO1 251309Z 16006KT 21/20 A3004 RMK A01 T02090200  RH  095%=      5-min Rain = 0
KGO1 251310Z 16006KT 21/20 A3004 RMK A01 T02090200  RH  094%=      5-min Rain = 0
KGO1 251311Z 16006KT 21/20 A3004 RMK A01 T02100200  RH  094%=      5-min Rain = 0
KGO1 251312Z 15005KT 21/20 A3004 RMK A01 T02110201  RH  094%=      5-min Rain = 0
KGO1 251313Z 15005KT 21/20 A3004 RMK A01 T02110202  RH  094%=      5-min Rain = 0
KGO1 251314Z 16007KT 21/20 A3004 RMK A01 T02110202  RH  094%=      5-min Rain = 0
KGO1 251315Z 15007KT 21/20 A3004 RMK A01 T02120202  RH  094%=      5-min Rain = 0
KGO1 251316Z 15008KT 21/20 A3004 RMK A01 T02120202  RH  094%=      5-min Rain = 0
KGO1 251317Z 15008KT 21/20 A3004 RMK A01 T02120200  RH  093%=      5-min Rain = 0
KGO1 251318Z 16008KT 21/20 A3004 RMK A01 T02120199  RH  093%=      5-min Rain = 0
KGO1 251319Z 16006KT 21/20 A3004 RMK A01 T02110199  RH  093%=      5-min Rain = 0
KGO1 251320Z 16005KT 21/20 A3004 RMK A01 T02110200  RH  093%=      5-min Rain = 0
KGO1 251321Z 15007KT 21/20 A3004 RMK A01 T02120200  RH  093%=      5-min Rain = 0
KGO1 251322Z 15007KT 21/20 A3004 RMK A01 T02120200  RH  092%=      5-min Rain = 0
KGO1 251323Z 15008KT 21/20 A3004 RMK A01 T02130198  RH  091%=      5-min Rain = 0
KGO1 251324Z 15007KT 21/20 A3004 RMK A01 T02130197  RH  091%=      5-min Rain = 0
KGO1 251325Z 16006KT 21/20 A3004 RMK A01 T02130198  RH  091%=      5-min Rain = 0
KGO1 251326Z 16005KT 21/20 A3004 RMK A01 T02130198  RH  091%=      5-min Rain = 0
KGO1 251327Z 17005KT 21/20 A3004 RMK A01 T02130198  RH  091%=      5-min Rain = 0
KGO1 251328Z 16006KT 21/20 A3004 RMK A01 T02140199  RH  091%=      5-min Rain = 0
KGO1 251329Z 16007KT 21/20 A3004 RMK A01 T02140198  RH  091%=      5-min Rain = 0
KGO1 251330Z 16006KT 21/20 A3004 RMK A01 T02140197  RH  090%=      5-min Rain = 0
KGO1 251331Z 16006KT 21/20 A3004 RMK A01 T02140197  RH  090%=      5-min Rain = 0
KGO1 251332Z 17006KT 21/20 A3004 RMK A01 T02140199  RH  091%=      5-min Rain = 0
KGO1 251333Z 18007KT 22/20 A3004 RMK A01 T02150198  RH  090%=      5-min Rain = 0
KGO1 251334Z 18006KT 22/20 A3004 RMK A01 T02150197  RH  089%=      5-min Rain = 0
KGO1 251335Z 18007KT 22/20 A3004 RMK A01 T02160198  RH  090%=      5-min Rain = 0
KGO1 251336Z 16007KT 22/20 A3004 RMK A01 T02160196  RH  088%=      5-min Rain = 0
KGO1 251337Z 16006KT 22/19 A3004 RMK A01 T02160189  RH  084%=      5-min Rain = 0
KGO1 251338Z 17006KT 22/19 A3004 RMK A01 T02170194  RH  087%=      5-min Rain = 0
KGO1 251339Z 16006KT 22/19 A3004 RMK A01 T02180194  RH  086%=      5-min Rain = 0
KGO1 251340Z 18005KT 22/19 A3004 RMK A01 T02180193  RH  085%=      5-min Rain = 0
KGO1 251341Z 18004KT 22/20 A3004 RMK A01 T02190195  RH  086%=      5-min Rain = 0
KGO1 251342Z 18005KT 22/19 A3004 RMK A01 T02200194  RH  085%=      5-min Rain = 0
KGO1 251343Z 19005KT 22/19 A3004 RMK A01 T02200193  RH  084%=      5-min Rain = 0
KGO1 251344Z 20007KT 22/19 A3004 RMK A01 T02200189  RH  083%=      5-min Rain = 0
KGO1 251345Z 20007KT 22/19 A3004 RMK A01 T02200190  RH  083%=      5-min Rain = 0
KGO1 251346Z 20005KT 22/19 A3004 RMK A01 T02200189  RH  083%=      5-min Rain = 0
KGO1 251347Z 19004KT 22/19 A3004 RMK A01 T02200189  RH  083%=      5-min Rain = 0
KGO1 251348Z 19004KT 22/19 A3004 RMK A01 T02210190  RH  083%=      5-min Rain = 0
KGO1 251349Z 21004KT 22/19 A3004 RMK A01 T02220187  RH  081%=      5-min Rain = 0
KGO1 251350Z 20004KT 22/19 A3004 RMK A01 T02220191  RH  083%=      5-min Rain = 0
KGO1 251351Z 20004KT 22/19 A3004 RMK A01 T02230192  RH  082%=      5-min Rain = 0
KGO1 251352Z 19006KT 22/19 A3004 RMK A01 T02230191  RH  082%=      5-min Rain = 0
KGO1 251353Z 20006KT 22/19 A3004 RMK A01 T02230192  RH  082%=      5-min Rain = 0
KGO1 251354Z 22004KT 22/19 A3004 RMK A01 T02240192  RH  082%=      5-min Rain = 0
KGO1 251355Z 24004KT 22/19 A3004 RMK A01 T02240194  RH  083%=      5-min Rain = 0
KGO1 251356Z 23006KT 23/19 A3004 RMK A01 T02250186  RH  079%=      5-min Rain = 0
KGO1 251357Z 23006KT 23/19 A3004 RMK A01 T02250186  RH  079%=      5-min Rain = 0
KGO1 251358Z 21005KT 23/19 A3004 RMK A01 T02260190  RH  080%=      5-min Rain = 0
KGO1 251359Z 22006KT 23/19 A3004 RMK A01 T02260189  RH  079%=      5-min Rain = 0
KGO1 251400Z 21005KT 23/19 A3004 RMK A01 T02270189  RH  079%=      5-min Rain = 0
KGO1 251401Z 21004KT 23/19 A3004 RMK A01 T02280188  RH  078%=      5-min Rain = 0
KGO1 251402Z 22007KT 23/18 A3004 RMK A01 T02290182  RH  075%=      5-min Rain = 0
KGO1 251403Z 21005KT 23/19 A3004 RMK A01 T02300187  RH  076%=      5-min Rain = 0
KGO1 251404Z 21005KT 23/19 A3004 RMK A01 T02320193  RH  079%=      5-min Rain = 0
KGO1 251405Z 19005KT 23/19 A3004 RMK A01 T02320190  RH  077%=      5-min Rain = 0
KGO1 251406Z 20004KT 23/19 A3004 RMK A01 T02320191  RH  078%=      5-min Rain = 0
KGO1 251407Z 20005KT 23/19 A3004 RMK A01 T02320187  RH  076%=      5-min Rain = 0
KGO1 251408Z 21007KT 23/19 A3004 RMK A01 T02310185  RH  075%=      5-min Rain = 0
KGO1 251409Z 22006KT 23/19 A3004 RMK A01 T02330187  RH  075%=      5-min Rain = 0
KGO1 251410Z 22005KT 23/19 A3004 RMK A01 T02340185  RH  074%=      5-min Rain = 0
KGO1 251411Z 22005KT 24/18 A3004 RMK A01 T02350182  RH  072%=      5-min Rain = 0
KGO1 251412Z 23005KT 24/18 A3004 RMK A01 T02350180  RH  071%=      5-min Rain = 0
KGO1 251413Z 23006KT 24/18 A3004 RMK A01 T02350177  RH  070%=      5-min Rain = 0
KGO1 251414Z 23005KT 24/18 A3004 RMK A01 T02360175  RH  069%=      5-min Rain = 0
KGO1 251415Z 22008KT 24/17 A3004 RMK A01 T02370174  RH  068%=      5-min Rain = 0
KGO1 251416Z 22008KT 24/17 A3004 RMK A01 T02380172  RH  067%=      5-min Rain = 0
KGO1 251417Z 22007KT 24/17 A3004 RMK A01 T02370172  RH  067%=      5-min Rain = 0
KGO1 251418Z 23008KT 24/17 A3004 RMK A01 T02380171  RH  066%=      5-min Rain = 0
KGO1 251419Z 23009KT 24/17 A3004 RMK A01 T02390169  RH  065%=      5-min Rain = 0
KGO1 251420Z 22007KT 24/17 A3004 RMK A01 T02390169  RH  065%=      5-min Rain = 0
KGO1 251421Z 23007KT 24/17 A3004 RMK A01 T02400172  RH  066%=      5-min Rain = 0
KGO1 251422Z 23008KT 24/17 A3004 RMK A01 T02410168  RH  064%=      5-min Rain = 0
KGO1 251423Z 24009KT 24/17 A3004 RMK A01 T02410168  RH  064%=      5-min Rain = 0
KGO1 251424Z 23008KT 24/17 A3004 RMK A01 T02410168  RH  064%=      5-min Rain = 0
KGO1 251425Z 23007KT 24/17 A3004 RMK A01 T02410170  RH  064%=      5-min Rain = 0
KGO1 251426Z 24008KT 24/17 A3004 RMK A01 T02420169  RH  064%=      5-min Rain = 0
KGO1 251427Z 23009KT 24/17 A3004 RMK A01 T02430167  RH  062%=      5-min Rain = 0
KGO1 251428Z 23007KT 24/17 A3004 RMK A01 T02430165  RH  062%=      5-min Rain = 0
KGO1 251429Z 23008KT 24/17 A3004 RMK A01 T02430165  RH  062%=      5-min Rain = 0
KGO1 251430Z 24008KT 24/17 A3004 RMK A01 T02430170  RH  064%=      5-min Rain = 0
KGO1 251431Z 23006KT 24/17 A3004 RMK A01 T02430166  RH  062%=      5-min Rain = 0
KGO1 251432Z 23006KT 24/17 A3004 RMK A01 T02440166  RH  062%=      5-min Rain = 0
KGO1 251433Z 23006KT 24/17 A3004 RMK A01 T02440167  RH  062%=      5-min Rain = 0
KGO1 251434Z 25007KT 25/17 A3004 RMK A01 T02460169  RH  062%=      5-min Rain = 0
KGO1 251435Z 25009KT 25/17 A3004 RMK A01 T02470167  RH  061%=      5-min Rain = 0
KGO1 251436Z 24007KT 25/17 A3004 RMK A01 T02490170  RH  062%=      5-min Rain = 0
KGO1 251437Z 25008KT 25/17 A3004 RMK A01 T02500165  RH  059%=      5-min Rain = 0
KGO1 251438Z 24008KT 25/17 A3004 RMK A01 T02500165  RH  059%=      5-min Rain = 0
KGO1 251439Z 24008KT 25/16 A3004 RMK A01 T02500164  RH  059%=      5-min Rain = 0
KGO1 251440Z 23010KT 25/17 A3004 RMK A01 T02500166  RH  060%=      5-min Rain = 0
KGO1 251441Z 24007KT 25/16 A3004 RMK A01 T02500160  RH  057%=      5-min Rain = 0
KGO1 251442Z 23008KT 25/16 A3004 RMK A01 T02500164  RH  059%=      5-min Rain = 0
KGO1 251443Z 23008KT 25/16 A3004 RMK A01 T02500164  RH  059%=      5-min Rain = 0
KGO1 251444Z 24007KT 25/16 A3004 RMK A01 T02510163  RH  058%=      5-min Rain = 0
KGO1 251445Z 23007KT 25/16 A3004 RMK A01 T02510163  RH  058%=      5-min Rain = 0
KGO1 251446Z 24006KT 25/17 A3004 RMK A01 T02520168  RH  060%=      5-min Rain = 0
KGO1 251447Z 22007KT 25/17 A3004 RMK A01 T02540165  RH  058%=      5-min Rain = 0
KGO1 251448Z 24008KT 25/17 A3004 RMK A01 T02540167  RH  058%=      5-min Rain = 0
KGO1 251449Z 23009KT 26/16 A3004 RMK A01 T02550163  RH  057%=      5-min Rain = 0
KGO1 251450Z 24010KT 26/16 A3004 RMK A01 T02550159  RH  055%=      5-min Rain = 0
KGO1 251451Z 24009KT 25/16 A3004 RMK A01 T02540161  RH  056%=      5-min Rain = 0
KGO1 251452Z 24010KT 26/16 A3004 RMK A01 T02550163  RH  057%=      5-min Rain = 0
KGO1 251453Z 25010KT 26/16 A3004 RMK A01 T02560159  RH  055%=      5-min Rain = 0
KGO1 251454Z 22009KT 26/16 A3004 RMK A01 T02560160  RH  056%=      5-min Rain = 0
KGO1 251455Z 24011KT 26/16 A3004 RMK A01 T02560164  RH  057%=      5-min Rain = 0
KGO1 251456Z 24012KT 26/16 A3004 RMK A01 T02570157  RH  054%=      5-min Rain = 0
KGO1 251457Z 24011KT 26/16 A3004 RMK A01 T02570158  RH  054%=      5-min Rain = 0
KGO1 251458Z 24009KT 26/16 A3004 RMK A01 T02560159  RH  055%=      5-min Rain = 0
KGO1 251459Z 24012KT 26/16 A3004 RMK A01 T02560155  RH  053%=      5-min Rain = 0
KGO1 251500Z 24011KT 26/16 A3004 RMK A01 T02560156  RH  054%=      5-min Rain = 0
KGO1 251501Z 24010KT 26/16 A3004 RMK A01 T02570159  RH  055%=      5-min Rain = 0
KGO1 251502Z 23012KT 26/16 A3004 RMK A01 T02580157  RH  054%=      5-min Rain = 0
KGO1 251503Z 23011KT 26/16 A3004 RMK A01 T02580157  RH  054%=      5-min Rain = 0
KGO1 251504Z 23010KT 26/16 A3004 RMK A01 T02580156  RH  053%=      5-min Rain = 0
KGO1 251505Z 24011KT 26/16 A3004 RMK A01 T02570156  RH  053%=      5-min Rain = 0
KGO1 251506Z 24014KT 26/15 A3004 RMK A01 T02580153  RH  053%=      5-min Rain = 0
KGO1 251507Z 24011KT 26/16 A3004 RMK A01 T02570155  RH  053%=      5-min Rain = 0
KGO1 251508Z 24012KT 26/16 A3004 RMK A01 T02570155  RH  053%=      5-min Rain = 0
KGO1 251509Z 23012KT 26/15 A3004 RMK A01 T02580154  RH  052%=      5-min Rain = 0
KGO1 251510Z 24012KT 26/16 A3004 RMK A01 T02580155  RH  053%=      5-min Rain = 0
KGO1 251511Z 25011KT 26/16 A3004 RMK A01 T02580156  RH  053%=      5-min Rain = 0
KGO1 251512Z 25010KT 26/16 A3004 RMK A01 T02590158  RH  054%=      5-min Rain = 0
KGO1 251513Z 24009KT 26/16 A3004 RMK A01 T02610158  RH  053%=      5-min Rain = 0
KGO1 251514Z 24012KT 26/16 A3004 RMK A01 T02610158  RH  053%=      5-min Rain = 0
KGO1 251515Z 23013KT 26/16 A3004 RMK A01 T02620155  RH  052%=      5-min Rain = 0
KGO1 251516Z 24014KT 26/15 A3004 RMK A01 T02610152  RH  051%=      5-min Rain = 0
KGO1 251517Z 24013KT 26/16 A3004 RMK A01 T02590155  RH  053%=      5-min Rain = 0
KGO1 251518Z 24011KT 26/16 A3004 RMK A01 T02590159  RH  054%=      5-min Rain = 0
KGO1 251519Z 24010KT 26/16 A3004 RMK A01 T02610159  RH  053%=      5-min Rain = 0
KGO1 251520Z 23008KT 26/17 A3004 RMK A01 T02630166  RH  055%=      5-min Rain = 0
KGO1 251521Z 23008KT 27/16 A3004 RMK A01 T02660161  RH  053%=      5-min Rain = 0
KGO1 251522Z 22009KT 27/16 A3004 RMK A01 T02660164  RH  053%=      5-min Rain = 0
KGO1 251523Z 23009KT 27/16 A3004 RMK A01 T02670161  RH  052%=      5-min Rain = 0
KGO1 251524Z 22011KT 27/16 A3004 RMK A01 T02670161  RH  052%=      5-min Rain = 0
KGO1 251525Z 22009KT 27/16 A3004 RMK A01 T02660161  RH  053%=      5-min Rain = 0
KGO1 251526Z 21013KT 27/16 A3004 RMK A01 T02660160  RH  052%=      5-min Rain = 0
KGO1 251527Z 22014KT 27/16 A3004 RMK A01 T02660158  RH  051%=      5-min Rain = 0
KGO1 251528Z 20015KT 27/16 A3004 RMK A01 T02660156  RH  051%=      5-min Rain = 0
KGO1 251529Z 21014KT 27/16 A3004 RMK A01 T02650156  RH  051%=      5-min Rain = 0
KGO1 251530Z 22013KT 26/16 A3004 RMK A01 T02640157  RH  051%=      5-min Rain = 0
KGO1 251531Z 22015KT 26/16 A3004 RMK A01 T02640156  RH  051%=      5-min Rain = 0
KGO1 251532Z 22013KT 26/16 A3004 RMK A01 T02640155  RH  051%=      5-min Rain = 0
KGO1 251533Z 22014KT 26/16 A3004 RMK A01 T02630156  RH  052%=      5-min Rain = 0
KGO1 251534Z 22011KT 26/16 A3004 RMK A01 T02630157  RH  052%=      5-min Rain = 0
KGO1 251535Z 21010KT 26/16 A3004 RMK A01 T02640160  RH  053%=      5-min Rain = 0
KGO1 251536Z 19011KT 27/16 A3004 RMK A01 T02660163  RH  053%=      5-min Rain = 0
KGO1 251537Z 21011KT 27/16 A3004 RMK A01 T02690163  RH  052%=      5-min Rain = 0
KGO1 251538Z 21012KT 27/16 A3004 RMK A01 T02710162  RH  052%=      5-min Rain = 0
KGO1 251539Z 21012KT 27/16 A3004 RMK A01 T02710163  RH  051%=      5-min Rain = 0
KGO1 251540Z 21013KT 27/16 A3004 RMK A01 T02720161  RH  051%=      5-min Rain = 0
KGO1 251541Z 21014KT 27/16 A3004 RMK A01 T02710160  RH  050%=      5-min Rain = 0
KGO1 251542Z 21012KT 27/16 A3004 RMK A01 T02700162  RH  051%=      5-min Rain = 0
KGO1 251543Z 22012KT 27/16 A3004 RMK A01 T02710160  RH  051%=      5-min Rain = 0
KGO1 251544Z 22011KT 27/16 A3004 RMK A01 T02700157  RH  050%=      5-min Rain = 0
KGO1 251545Z 22009KT 27/16 A3004 RMK A01 T02690158  RH  051%=      5-min Rain = 0
KGO1 251546Z 21008KT 27/16 A3004 RMK A01 T02680161  RH  052%=      5-min Rain = 0
KGO1 251547Z 19010KT 27/16 A3004 RMK A01 T02690162  RH  052%=      5-min Rain = 0
KGO1 251548Z 18010KT 27/16 A3004 RMK A01 T02700162  RH  052%=      5-min Rain = 0
KGO1 251549Z 19010KT 27/16 A3004 RMK A01 T02700160  RH  051%=      5-min Rain = 0
KGO1 251550Z 18010KT 27/17 A3004 RMK A01 T02710165  RH  052%=      5-min Rain = 0
KGO1 251551Z 19011KT 27/16 A3004 RMK A01 T02720164  RH  052%=      5-min Rain = 0
KGO1 251552Z 18009KT 27/16 A3004 RMK A01 T02720161  RH  050%=      5-min Rain = 0
KGO1 251553Z 18009KT 27/16 A3004 RMK A01 T02710160  RH  051%=      5-min Rain = 0
KGO1 251554Z 19009KT 27/16 A3004 RMK A01 T02700162  RH  051%=      5-min Rain = 0
KGO1 251555Z 19012KT 27/16 A3004 RMK A01 T02710163  RH  052%=      5-min Rain = 0
KGO1 251556Z 18011KT 27/16 A3004 RMK A01 T02720159  RH  050%=      5-min Rain = 0
KGO1 251557Z 19008KT 27/16 A3004 RMK A01 T02710163  RH  052%=      5-min Rain = 0
KGO1 251558Z 19005KT 27/16 A3004 RMK A01 T02710163  RH  052%=      5-min Rain = 0
KGO1 251559Z 20008KT 27/17 A3004 RMK A01 T02720167  RH  052%=      5-min Rain = 0
KGO1 251600Z 19009KT 28/17 A3004 RMK A01 T02750168  RH  052%=      5-min Rain = 0
KGO1 251601Z 19012KT 28/17 A3004 RMK A01 T02770168  RH  051%=      5-min Rain = 0
KGO1 251602Z 20013KT 28/16 A3004 RMK A01 T02780164  RH  050%=      5-min Rain = 0
KGO1 251603Z 20011KT 28/16 A3004 RMK A01 T02770162  RH  050%=      5-min Rain = 0
KGO1 251604Z 21011KT 28/16 A3004 RMK A01 T02750164  RH  051%=      5-min Rain = 0
KGO1 251605Z 22013KT 28/16 A3004 RMK A01 T02750162  RH  050%=      5-min Rain = 0
KGO1 251606Z 20010KT 28/17 A3004 RMK A01 T02750167  RH  052%=      5-min Rain = 0
KGO1 251607Z 19009KT 28/16 A3004 RMK A01 T02760163  RH  050%=      5-min Rain = 0
KGO1 251608Z 19009KT 28/17 A3004 RMK A01 T02760167  RH  052%=      5-min Rain = 0
KGO1 251609Z 18010KT 28/17 A3004 RMK A01 T02780169  RH  052%=      5-min Rain = 0
KGO1 251610Z 19011KT 28/17 A3004 RMK A01 T02790168  RH  051%=      5-min Rain = 0
KGO1 251611Z 20010KT 28/17 A3004 RMK A01 T02790165  RH  050%=      5-min Rain = 0
KGO1 251612Z 20009KT 28/17 A3004 RMK A01 T02780166  RH  050%=      5-min Rain = 0
KGO1 251613Z 21008KT 28/17 A3004 RMK A01 T02770165  RH  051%=      5-min Rain = 0
KGO1 251614Z 20007KT 28/16 A3004 RMK A01 T02760164  RH  050%=      5-min Rain = 0
KGO1 251615Z 20007KT 28/17 A3004 RMK A01 T02760165  RH  051%=      5-min Rain = 0
KGO1 251616Z 19009KT 28/17 A3004 RMK A01 T02770170  RH  052%=      5-min Rain = 0
KGO1 251617Z 20011KT 28/17 A3004 RMK A01 T02800170  RH  051%=      5-min Rain = 0
KGO1 251618Z 20009KT 28/17 A3005 RMK A01 T02820169  RH  050%=      5-min Rain = 0
KGO1 251619Z 19009KT 28/17 A3004 RMK A01 T02820166  RH  049%=      5-min Rain = 0
KGO1 251620Z 18007KT 28/17 A3004 RMK A01 T02820166  RH  049%=      5-min Rain = 0
KGO1 251621Z 20009KT 28/17 A3004 RMK A01 T02820168  RH  050%=      5-min Rain = 0
KGO1 251622Z 20009KT 28/17 A3004 RMK A01 T02820168  RH  050%=      5-min Rain = 0
KGO1 251623Z 21011KT 28/17 A3004 RMK A01 T02820167  RH  050%=      5-min Rain = 0
KGO1 251624Z 22012KT 28/17 A3004 RMK A01 T02830170  RH  050%=      5-min Rain = 0
KGO1 251625Z 23008KT 28/17 A3004 RMK A01 T02840170  RH  050%=      5-min Rain = 0
KGO1 251626Z 22007KT 29/17 A3004 RMK A01 T02850166  RH  048%=      5-min Rain = 0
KGO1 251627Z 22010KT 29/17 A3004 RMK A01 T02850171  RH  050%=      5-min Rain = 0
KGO1 251628Z 21008KT 29/17 A3004 RMK A01 T02860169  RH  049%=      5-min Rain = 0
KGO1 251629Z 20008KT 29/17 A3004 RMK A01 T02850169  RH  049%=      5-min Rain = 0
KGO1 251630Z 20009G14KT 29/17 A3004 RMK A01 T02860171  RH  050%=      5-min Rain = 0
KGO1 251631Z 22012KT 29/17 A3004 RMK A01 T02880169  RH  049%=      5-min Rain = 0
KGO1 251632Z 21011KT 29/17 A3004 RMK A01 T02880171  RH  049%=      5-min Rain = 0
KGO1 251633Z 20010KT 29/17 A3004 RMK A01 T02880172  RH  049%=      5-min Rain = 0
KGO1 251634Z 18010KT 29/17 A3004 RMK A01 T02890173  RH  049%=      5-min Rain = 0
KGO1 251635Z 19008KT 29/17 A3004 RMK A01 T02890171  RH  049%=      5-min Rain = 0
KGO1 251636Z 20007KT 29/18 A3004 RMK A01 T02900176  RH  050%=      5-min Rain = 0
KGO1 251637Z 19007KT 29/17 A3004 RMK A01 T02920173  RH  049%=      5-min Rain = 0
KGO1 251638Z 19009KT 29/18 A3004 RMK A01 T02930175  RH  049%=      5-min Rain = 0
KGO1 251639Z 19007KT 29/17 A3004 RMK A01 T02930172  RH  048%=      5-min Rain = 0
KGO1 251640Z 19005KT 29/17 A3004 RMK A01 T02930172  RH  048%=      5-min Rain = 0
KGO1 251641Z 20006KT 29/18 A3004 RMK A01 T02930178  RH  050%=      5-min Rain = 0
KGO1 251642Z 23007KT 30/18 A3004 RMK A01 T02960177  RH  049%=      5-min Rain = 0
KGO1 251643Z 21009KT 30/18 A3004 RMK A01 T02960176  RH  048%=      5-min Rain = 0
KGO1 251644Z 20011KT 30/17 A3004 RMK A01 T02960174  RH  048%=      5-min Rain = 0
KGO1 251645Z 19007KT 29/17 A3004 RMK A01 T02940168  RH  047%=      5-min Rain = 0
KGO1 251646Z 19007KT 29/17 A3004 RMK A01 T02920170  RH  048%=      5-min Rain = 0
KGO1 251647Z 17006G12KT 29/17 A3004 RMK A01 T02920170  RH  048%=      5-min Rain = 0
KGO1 251648Z 18011KT 29/18 A3004 RMK A01 T02920175  RH  049%=      5-min Rain = 0
KGO1 251649Z 19009KT 29/17 A3004 RMK A01 T02940169  RH  047%=      5-min Rain = 0
KGO1 251650Z 19006KT 29/17 A3004 RMK A01 T02940172  RH  048%=      5-min Rain = 0
KGO1 251651Z 17006KT 29/17 A3004 RMK A01 T02940172  RH  048%=      5-min Rain = 0
KGO1 251652Z 17004KT 30/17 A3004 RMK A01 T02950171  RH  047%=      5-min Rain = 0
KGO1 251653Z 21008KT 30/17 A3004 RMK A01 T02960168  RH  046%=      5-min Rain = 0
KGO1 251654Z 20009KT 29/18 A3004 RMK A01 T02940175  RH  049%=      5-min Rain = 0
KGO1 251655Z 19009KT 30/17 A3004 RMK A01 T02950171  RH  047%=      5-min Rain = 0
KGO1 251656Z 18007KT 30/17 A3004 RMK A01 T02960171  RH  047%=      5-min Rain = 0
KGO1 251657Z 18005KT 30/17 A3004 RMK A01 T02960169  RH  046%=      5-min Rain = 0
KGO1 251658Z 19006KT 30/18 A3004 RMK A01 T02960175  RH  048%=      5-min Rain = 0
KGO1 251659Z 19012KT 30/17 A3004 RMK A01 T02970170  RH  047%=      5-min Rain = 0
KGO1 251700Z 19010KT 30/17 A3004 RMK A01 T02970168  RH  046%=      5-min Rain = 0
KGO1 251701Z 18006KT 30/17 A3004 RMK A01 T02950166  RH  046%=      5-min Rain = 0
KGO1 251702Z 20005KT 29/17 A3004 RMK A01 T02940170  RH  047%=      5-min Rain = 0
KGO1 251703Z 20003KT 30/17 A3004 RMK A01 T02950168  RH  046%=      5-min Rain = 0
KGO1 251704Z 18006KT 30/18 A3004 RMK A01 T02970177  RH  048%=      5-min Rain = 0
KGO1 251705Z 20009KT 30/18 A3004 RMK A01 T02990176  RH  047%=      5-min Rain = 0
KGO1 251706Z 19007KT 30/18 A3004 RMK A01 T03010177  RH  047%=      5-min Rain = 0
KGO1 251707Z 19005KT 30/17 A3004 RMK A01 T03020172  RH  046%=      5-min Rain = 0
KGO1 251708Z 20005KT 30/17 A3004 RMK A01 T03020172  RH  046%=      5-min Rain = 0
KGO1 251709Z 21005KT 30/17 A3004 RMK A01 T03020172  RH  046%=      5-min Rain = 0
KGO1 251710Z 20005KT 30/17 A3004 RMK A01 T03010174  RH  047%=      5-min Rain = 0
KGO1 251711Z 16006G12KT 30/18 A3004 RMK A01 T03020175  RH  046%=      5-min Rain = 0
KGO1 251712Z 16010KT 30/18 A3004 RMK A01 T03030176  RH  046%=      5-min Rain = 0
KGO1 251713Z 15011KT 30/17 A3004 RMK A01 T03040173  RH  045%=      5-min Rain = 0
KGO1 251714Z 17012KT 30/18 A3004 RMK A01 T03040175  RH  046%=      5-min Rain = 0
KGO1 251715Z 16011KT 30/17 A3004 RMK A01 T03030170  RH  045%=      5-min Rain = 0
KGO1 251716Z 17010KT 30/18 A3004 RMK A01 T03000175  RH  047%=      5-min Rain = 0
KGO1 251717Z 19007KT 30/17 A3004 RMK A01 T03010168  RH  045%=      5-min Rain = 0
KGO1 251718Z 18005KT 30/17 A3004 RMK A01 T03000173  RH  047%=      5-min Rain = 0
KGO1 251719Z 15006KT 30/18 A3004 RMK A01 T03010176  RH  047%=      5-min Rain = 0
KGO1 251720Z 16007KT 30/17 A3004 RMK A01 T03030170  RH  045%=      5-min Rain = 0
KGO1 251721Z 17005KT 30/17 A3004 RMK A01 T03030168  RH  044%=      5-min Rain = 0
KGO1 251722Z 18007KT 30/17 A3004 RMK A01 T03020170  RH  045%=      5-min Rain = 0
KGO1 251723Z 18006KT 30/17 A3004 RMK A01 T03020174  RH  046%=      5-min Rain = 0
KGO1 251724Z 19005KT 30/17 A3004 RMK A01 T03030171  RH  045%=      5-min Rain = 0
KGO1 251725Z 17006KT 31/18 A3004 RMK A01 T03050176  RH  046%=      5-min Rain = 0
KGO1 251726Z 17007KT 31/17 A3004 RMK A01 T03070171  RH  044%=      5-min Rain = 0
KGO1 251727Z 18006KT 31/17 A3004 RMK A01 T03070173  RH  045%=      5-min Rain = 0
KGO1 251728Z 16007KT 31/18 A3003 RMK A01 T03070178  RH  046%=      5-min Rain = 0
KGO1 251729Z 18007KT 31/17 A3003 RMK A01 T03090174  RH  045%=      5-min Rain = 0
KGO1 251730Z 16009KT 31/17 A3003 RMK A01 T03080172  RH  044%=      5-min Rain = 0
KGO1 251731Z 16009KT 31/17 A3003 RMK A01 T03070173  RH  045%=      5-min Rain = 0
KGO1 251732Z 14006KT 31/18 A3003 RMK A01 T03070178  RH  046%=      5-min Rain = 0
KGO1 251733Z 13006KT 31/17 A3003 RMK A01 T03070169  RH  044%=      5-min Rain = 0
KGO1 251734Z 14005KT 31/17 A3003 RMK A01 T03060171  RH  044%=      5-min Rain = 0
KGO1 251735Z 18007KT 31/17 A3003 RMK A01 T03060171  RH  044%=      5-min Rain = 0
KGO1 251736Z 19007KT 31/17 A3003 RMK A01 T03060167  RH  043%=      5-min Rain = 0
KGO1 251737Z 19005KT 31/17 A3003 RMK A01 T03070174  RH  045%=      5-min Rain = 0
KGO1 251738Z 17006KT 31/17 A3003 RMK A01 T03100172  RH  044%=      5-min Rain = 0
KGO1 251739Z 17006KT 31/17 A3003 RMK A01 T03110166  RH  042%=      5-min Rain = 0
KGO1 251740Z 16007KT 31/17 A3003 RMK A01 T03100172  RH  044%=      5-min Rain = 0
KGO1 251741Z 16008KT 31/17 A3003 RMK A01 T03100171  RH  043%=      5-min Rain = 0
KGO1 251742Z 17011KT 31/17 A3003 RMK A01 T03110170  RH  043%=      5-min Rain = 0
KGO1 251743Z 18010KT 31/17 A3003 RMK A01 T03120171  RH  043%=      5-min Rain = 0
KGO1 251744Z 19008KT 31/17 A3003 RMK A01 T03120172  RH  043%=      5-min Rain = 0
KGO1 251745Z 19007KT 31/17 A3003 RMK A01 T03120168  RH  042%=      5-min Rain = 0
KGO1 251746Z 22006KT 31/17 A3003 RMK A01 T03120167  RH  042%=      5-min Rain = 0
KGO1 251747Z 18005KT 31/17 A3003 RMK A01 T03120174  RH  044%=      5-min Rain = 0
KGO1 251748Z 19004KT 31/17 A3003 RMK A01 T03130165  RH  041%=      5-min Rain = 0
KGO1 251749Z 20004KT 31/16 A3003 RMK A01 T03120164  RH  041%=      5-min Rain = 0
KGO1 251750Z 17004KT 31/17 A3003 RMK A01 T03100166  RH  042%=      5-min Rain = 0
KGO1 251751Z 17003KT 31/17 A3003 RMK A01 T03110168  RH  042%=      5-min Rain = 0
KGO1 251752Z 18003KT 31/17 A3003 RMK A01 T03120170  RH  042%=      5-min Rain = 0
KGO1 251753Z 17005KT 31/17 A3003 RMK A01 T03140174  RH  043%=      5-min Rain = 0
KGO1 251754Z 16009KT 32/17 A3003 RMK A01 T03170173  RH  042%=      5-min Rain = 0
KGO1 251755Z 14008KT 32/17 A3003 RMK A01 T03150169  RH  041%=      5-min Rain = 0
KGO1 251756Z 13007KT 31/17 A3003 RMK A01 T03120167  RH  042%=      5-min Rain = 0
KGO1 251757Z 13007KT 31/17 A3003 RMK A01 T03110173  RH  043%=      5-min Rain = 0
KGO1 251758Z 12006KT 31/17 A3003 RMK A01 T03130174  RH  043%=      5-min Rain = 0
KGO1 251759Z 11004KT 31/17 A3003 RMK A01 T03140166  RH  041%=      5-min Rain = 0
KGO1 251800Z 15006KT 31/18 A3003 RMK A01 T03130175  RH  044%=      5-min Rain = 0
KGO1 251801Z 15007KT 31/17 A3003 RMK A01 T03140173  RH  043%=      5-min Rain = 0
KGO1 251802Z 18005KT 32/17 A3003 RMK A01 T03150172  RH  043%=      5-min Rain = 0
KGO1 251803Z 15002KT 32/17 A3003 RMK A01 T03150170  RH  042%=      5-min Rain = 0
KGO1 251804Z 14004KT 32/17 A3003 RMK A01 T03150173  RH  043%=      5-min Rain = 0
KGO1 251805Z 10002KT 32/17 A3003 RMK A01 T03160166  RH  040%=      5-min Rain = 0
KGO1 251806Z 14002KT 32/17 A3003 RMK A01 T03160167  RH  041%=      5-min Rain = 0
KGO1 251807Z 13003KT 32/17 A3003 RMK A01 T03150171  RH  042%=      5-min Rain = 0
KGO1 251808Z 13006KT 32/18 A3003 RMK A01 T03150176  RH  043%=      5-min Rain = 0
KGO1 251809Z 14006KT 32/18 A3003 RMK A01 T03160176  RH  043%=      5-min Rain = 0
KGO1 251810Z 17004KT 32/17 A3003 RMK A01 T03170174  RH  042%=      5-min Rain = 0
KGO1 251811Z 14003KT 32/18 A3003 RMK A01 T03160175  RH  043%=      5-min Rain = 0
KGO1 251812Z 10003KT 32/17 A3003 RMK A01 T03160170  RH  042%=      5-min Rain = 0
KGO1 251813Z 09005KT 32/17 A3003 RMK A01 T03160172  RH  042%=      5-min Rain = 0
KGO1 251814Z 12004KT 32/17 A3003 RMK A01 T03150170  RH  042%=      5-min Rain = 0
KGO1 251815Z 16003KT 31/17 A3003 RMK A01 T03140171  RH  042%=      5-min Rain = 0
KGO1 251816Z 10004KT 32/18 A3003 RMK A01 T03150176  RH  043%=      5-min Rain = 0
KGO1 251817Z 08005KT 32/18 A3003 RMK A01 T03170175  RH  043%=      5-min Rain = 0
KGO1 251818Z 10003KT 32/18 A3003 RMK A01 T03180175  RH  043%=      5-min Rain = 0
KGO1 251819Z 10003KT 32/18 A3003 RMK A01 T03190175  RH  042%=      5-min Rain = 0
KGO1 251820Z 08004KT 32/17 A3003 RMK A01 T03190174  RH  042%=      5-min Rain = 0
KGO1 251821Z 08004KT 32/17 A3003 RMK A01 T03190171  RH  041%=      5-min Rain = 0
KGO1 251822Z 14003KT 32/17 A3003 RMK A01 T03200171  RH  041%=      5-min Rain = 0
KGO1 251823Z 22003KT 32/17 A3003 RMK A01 T03200173  RH  041%=      5-min Rain = 0
KGO1 251824Z 19002KT 32/17 A3002 RMK A01 T03210167  RH  040%=      5-min Rain = 0
KGO1 251825Z 18009G15KT 32/17 A3002 RMK A01 T03220169  RH  040%=      5-min Rain = 0
KGO1 251826Z 14006KT 32/18 A3002 RMK A01 T03240177  RH  041%=      5-min Rain = 0
KGO1 251827Z 13007KT 33/17 A3002 RMK A01 T03260173  RH  040%=      5-min Rain = 0
KGO1 251828Z 12006KT 33/17 A3002 RMK A01 T03260172  RH  040%=      5-min Rain = 0
KGO1 251829Z 14005KT 33/17 A3002 RMK A01 T03260170  RH  039%=      5-min Rain = 0
KGO1 251830Z 16007KT 33/17 A3002 RMK A01 T03250168  RH  039%=      5-min Rain = 0
KGO1 251831Z 15007KT 32/17 A3002 RMK A01 T03240170  RH  040%=      5-min Rain = 0
KGO1 251832Z 18011KT 33/17 A3002 RMK A01 T03250173  RH  040%=      5-min Rain = 0
KGO1 251833Z 17011KT 33/17 A3002 RMK A01 T03260169  RH  039%=      5-min Rain = 0
KGO1 251834Z 17007KT 33/16 A3002 RMK A01 T03250161  RH  038%=      5-min Rain = 0
KGO1 251835Z 15002KT 32/16 A3002 RMK A01 T03220164  RH  039%=      5-min Rain = 0
KGO1 251836Z 16001KT 32/15 A3002 RMK A01 T03230154  RH  036%=      5-min Rain = 0
KGO1 251837Z 19005KT 32/16 A3002 RMK A01 T03230161  RH  038%=      5-min Rain = 0
KGO1 251838Z 18009KT 32/17 A3002 RMK A01 T03240168  RH  039%=      5-min Rain = 0
KGO1 251839Z 17009KT 33/17 A3002 RMK A01 T03280171  RH  039%=      5-min Rain = 0
KGO1 251840Z 17008KT 33/16 A3002 RMK A01 T03280163  RH  037%=      5-min Rain = 0
KGO1 251841Z 16009KT 33/17 A3002 RMK A01 T03280169  RH  039%=      5-min Rain = 0
KGO1 251842Z 18009KT 33/17 A3002 RMK A01 T03280170  RH  039%=      5-min Rain = 0
KGO1 251843Z 17011KT 33/17 A3002 RMK A01 T03300172  RH  039%=      5-min Rain = 0
KGO1 251844Z 18009KT 33/17 A3002 RMK A01 T03320166  RH  037%=      5-min Rain = 0
KGO1 251845Z 17007KT 33/16 A3002 RMK A01 T03310159  RH  036%=      5-min Rain = 0
KGO1 251846Z 19011KT 33/17 A3002 RMK A01 T03290165  RH  038%=      5-min Rain = 0
KGO1 251847Z 13014G20KT 33/17 A3002 RMK A01 T03280174  RH  040%=      5-min Rain = 0
KGO1 251848Z 11008KT 33/17 A3002 RMK A01 T03260174  RH  040%=      5-min Rain = 0
KGO1 251849Z 11008KT 33/18 A3002 RMK A01 T03260176  RH  041%=      5-min Rain = 0
KGO1 251850Z 12007KT 33/18 A3002 RMK A01 T03270178  RH  041%=      5-min Rain = 0
KGO1 251851Z 13007KT 33/17 A3002 RMK A01 T03280171  RH  039%=      5-min Rain = 0
KGO1 251852Z 12007KT 33/17 A3002 RMK A01 T03280174  RH  040%=      5-min Rain = 0
KGO1 251853Z 13007KT 33/17 A3002 RMK A01 T03280171  RH  039%=      5-min Rain = 0
KGO1 251854Z 11009KT 33/17 A3002 RMK A01 T03310173  RH  039%=      5-min Rain = 0
KGO1 251855Z 11010KT 33/17 A3002 RMK A01 T03320170  RH  038%=      5-min Rain = 0
KGO1 251856Z 12010KT 33/17 A3002 RMK A01 T03310167  RH  038%=      5-min Rain = 0
KGO1 251857Z 13009KT 33/17 A3002 RMK A01 T03300171  RH  039%=      5-min Rain = 0
KGO1 251858Z 15008KT 33/17 A3002 RMK A01 T03290170  RH  039%=      5-min Rain = 0
KGO1 251859Z 16008KT 33/16 A3002 RMK A01 T03310163  RH  037%=      5-min Rain = 0
KGO1 251900Z 17008KT 33/16 A3002 RMK A01 T03320162  RH  036%=      5-min Rain = 0
KGO1 251901Z 17011KT 33/17 A3002 RMK A01 T03330166  RH  037%=      5-min Rain = 0
KGO1 251902Z 15012KT 33/17 A3001 RMK A01 T03330166  RH  037%=      5-min Rain = 0
KGO1 251903Z 14012KT 33/16 A3002 RMK A01 T03330163  RH  036%=      5-min Rain = 0
KGO1 251904Z 14009KT 33/17 A3001 RMK A01 T03320165  RH  037%=      5-min Rain = 0
KGO1 251905Z 16011KT 33/17 A3001 RMK A01 T03320168  RH  038%=      5-min Rain = 0
KGO1 251906Z 17007KT 33/17 A3001 RMK A01 T03320170  RH  038%=      5-min Rain = 0
KGO1 251907Z 14010KT 33/17 A3001 RMK A01 T03330174  RH  039%=      5-min Rain = 0
KGO1 251908Z 15012KT 33/17 A3001 RMK A01 T03340168  RH  037%=      5-min Rain = 0
KGO1 251909Z 15011KT 33/17 A3001 RMK A01 T03340167  RH  037%=      5-min Rain = 0
KGO1 251910Z 15010KT 33/16 A3001 RMK A01 T03320161  RH  036%=      5-min Rain = 0
KGO1 251911Z 15010KT 33/16 A3001 RMK A01 T03300164  RH  037%=      5-min Rain = 0
KGO1 251912Z 16007KT 33/16 A3001 RMK A01 T03300164  RH  037%=      5-min Rain = 0
KGO1 251913Z 14006KT 33/17 A3001 RMK A01 T03310166  RH  037%=      5-min Rain = 0
KGO1 251914Z 13007KT 33/17 A3001 RMK A01 T03330169  RH  038%=      5-min Rain = 0
KGO1 251915Z 16010KT 33/17 A3001 RMK A01 T03340166  RH  037%=      5-min Rain = 0
KGO1 251916Z 15010KT 33/16 A3001 RMK A01 T03340160  RH  035%=      5-min Rain = 0
KGO1 251917Z 14010KT 33/16 A3001 RMK A01 T03330159  RH  035%=      5-min Rain = 0
KGO1 251918Z 17012KT 33/16 A3001 RMK A01 T03320163  RH  036%=      5-min Rain = 0
KGO1 251919Z 17008KT 33/17 A3001 RMK A01 T03330166  RH  037%=      5-min Rain = 0
KGO1 251920Z 19006KT 33/17 A3001 RMK A01 T03340165  RH  036%=      5-min Rain = 0
KGO1 251921Z 17006KT 34/16 A3001 RMK A01 T03350163  RH  036%=      5-min Rain = 0
KGO1 251922Z 16012KT 34/16 A3001 RMK A01 T03350161  RH  035%=      5-min Rain = 0
KGO1 251923Z 18012KT 33/16 A3001 RMK A01 T03340163  RH  036%=      5-min Rain = 0
KGO1 251924Z 16010KT 34/16 A3001 RMK A01 T03350160  RH  035%=      5-min Rain = 0
KGO1 251925Z 14012KT 34/16 A3001 RMK A01 T03350160  RH  035%=      5-min Rain = 0
KGO1 251926Z 15011KT 34/16 A3001 RMK A01 T03350161  RH  035%=      5-min Rain = 0
KGO1 251927Z 17011KT 33/16 A3001 RMK A01 T03340161  RH  036%=      5-min Rain = 0
KGO1 251928Z 17011KT 33/16 A3001 RMK A01 T03340161  RH  036%=      5-min Rain = 0
KGO1 251929Z 18011KT 34/16 A3001 RMK A01 T03350155  RH  034%=      5-min Rain = 0
KGO1 251930Z 19008KT 34/15 A3001 RMK A01 T03350154  RH  034%=      5-min Rain = 0
KGO1 251931Z 15013KT 33/16 A3001 RMK A01 T03340156  RH  035%=      5-min Rain = 0
KGO1 251932Z 15015KT 33/15 A3001 RMK A01 T03340153  RH  034%=      5-min Rain = 0
KGO1 251933Z 15010KT 33/15 A3001 RMK A01 T03340153  RH  034%=      5-min Rain = 0
KGO1 251934Z 16007KT 33/15 A3001 RMK A01 T03340154  RH  034%=      5-min Rain = 0
KGO1 251935Z 14008KT 34/16 A3001 RMK A01 T03360163  RH  036%=      5-min Rain = 0
KGO1 251936Z 16012G17KT 34/16 A30 RMK A01 T03390159  RH  034%=      5-min Rain = 0
KGO1 251937Z 15015KT 34/16 A30 RMK A01 T03390155  RH  033%=      5-min Rain = 0
KGO1 251938Z 15016KT 34/15 A30 RMK A01 T03380149  RH  032%=      5-min Rain = 0
KGO1 251939Z 15013KT 34/15 A30 RMK A01 T03360154  RH  034%=      5-min Rain = 0
KGO1 251940Z 16013KT 34/16 A30 RMK A01 T03370160  RH  035%=      5-min Rain = 0
KGO1 251941Z 16012KT 34/16 A30 RMK A01 T03390157  RH  034%=      5-min Rain = 0
KGO1 251942Z 16010KT 34/16 A30 RMK A01 T03390158  RH  034%=      5-min Rain = 0
KGO1 251943Z 16013G18KT 34/16 A30 RMK A01 T03400156  RH  033%=      5-min Rain = 0
KGO1 251944Z 17018KT 34/15 A30 RMK A01 T03390151  RH  032%=      5-min Rain = 0
KGO1 251945Z 15012KT 34/16 A30 RMK A01 T03370157  RH  034%=      5-min Rain = 0
KGO1 251946Z 16012KT 34/16 A30 RMK A01 T03390155  RH  033%=      5-min Rain = 0
KGO1 251947Z 17012KT 34/15 A30 RMK A01 T03390151  RH  032%=      5-min Rain = 0
KGO1 251948Z 16013KT 34/15 A30 RMK A01 T03390154  RH  033%=      5-min Rain = 0
KGO1 251949Z 17012KT 34/15 A30 RMK A01 T03400154  RH  033%=      5-min Rain = 0
KGO1 251950Z 18013G18KT 34/16 A30 RMK A01 T03410161  RH  034%=      5-min Rain = 0
KGO1 251951Z 20014KT 34/15 A30 RMK A01 T03430150  RH  032%=      5-min Rain = 0
KGO1 251952Z 18013KT 34/15 A30 RMK A01 T03420152  RH  032%=      5-min Rain = 0
KGO1 251953Z 17014KT 34/15 A30 RMK A01 T03420147  RH  031%=      5-min Rain = 0
KGO1 251954Z 17013KT 34/15 A2999 RMK A01 T03400147  RH  032%=      5-min Rain = 0
KGO1 251955Z 17011KT 34/15 A2999 RMK A01 T03390146  RH  031%=      5-min Rain = 0
KGO1 251956Z 17009KT 34/15 A2999 RMK A01 T03400148  RH  032%=      5-min Rain = 0
KGO1 251957Z 17010KT 34/15 A2999 RMK A01 T03400148  RH  032%=      5-min Rain = 0
KGO1 251958Z 17012KT 34/16 A2999 RMK A01 T03420160  RH  034%=      5-min Rain = 0
KGO1 251959Z 17013KT 34/15 A2999 RMK A01 T03440153  RH  032%=      5-min Rain = 0
KGO1 252000Z 17015KT 34/16 A2999 RMK A01 T03440155  RH  032%=      5-min Rain = 0
KGO1 252001Z 15015G20KT 34/16 A2999 RMK A01 T03430162  RH  034%=      5-min Rain = 0
KGO1 252002Z 14016KT 34/17 A2999 RMK A01 T03420167  RH  035%=      5-min Rain = 0
KGO1 252003Z 14013KT 34/17 A2999 RMK A01 T03420165  RH  035%=      5-min Rain = 0
KGO1 252004Z 13014KT 34/16 A2999 RMK A01 T03380157  RH  034%=      5-min Rain = 0
KGO1 252005Z 13012KT 33/16 A2999 RMK A01 T03320157  RH  035%=      5-min Rain = 0
KGO1 252006Z 13014KT 33/16 A2999 RMK A01 T03280157  RH  036%=      5-min Rain = 0
KGO1 252007Z 12016KT 33/16 A2999 RMK A01 T03260155  RH  036%=      5-min Rain = 0
KGO1 252008Z 15014KT 33/16 A2999 RMK A01 T03290160  RH  036%=      5-min Rain = 0
KGO1 252009Z 15011KT 33/16 A2999 RMK A01 T03340156  RH  034%=      5-min Rain = 0
KGO1 252010Z 16013G19KT 34/16 A2999 RMK A01 T03360157  RH  034%=      5-min Rain = 0
KGO1 252011Z 16017G23KT 34/16 A2998 RMK A01 T03380161  RH  035%=      5-min Rain = 0
KGO1 252012Z 14018G23KT 34/17 A2998 RMK A01 T03380165  RH  036%=      5-min Rain = 0
KGO1 252013Z 14018G23KT 34/17 A2998 RMK A01 T03390167  RH  036%=      5-min Rain = 0
KGO1 252014Z 13018KT 34/17 A2998 RMK A01 T03390168  RH  036%=      5-min Rain = 0
KGO1 252015Z 14017KT 34/16 A2998 RMK A01 T03400164  RH  035%=      5-min Rain = 0
KGO1 252016Z 14013KT 34/17 A2998 RMK A01 T03390166  RH  036%=      5-min Rain = 0
KGO1 252017Z 16012KT 34/17 A2998 RMK A01 T03400167  RH  036%=      5-min Rain = 0
KGO1 252018Z 14011KT 34/17 A2998 RMK A01 T03410167  RH  036%=      5-min Rain = 0
KGO1 252019Z 14014KT 34/17 A2998 RMK A01 T03420167  RH  035%=      5-min Rain = 0
KGO1 252020Z 13015KT 34/16 A2998 RMK A01 T03420163  RH  034%=      5-min Rain = 0
KGO1 252021Z 13018KT 34/16 A2998 RMK A01 T03410161  RH  034%=      5-min Rain = 0
KGO1 252022Z 13018KT 34/16 A2998 RMK A01 T03400161  RH  034%=      5-min Rain = 0
KGO1 252023Z 13020KT 34/16 A2998 RMK A01 T03390162  RH  035%=      5-min Rain = 0
KGO1 252024Z 14018KT 34/16 A2998 RMK A01 T03370164  RH  035%=      5-min Rain = 0
KGO1 252025Z 13012KT 34/17 A2998 RMK A01 T03380174  RH  038%=      5-min Rain = 0
KGO1 252026Z 14017KT 34/17 A2998 RMK A01 T03420171  RH  036%=      5-min Rain = 0
KGO1 252027Z 13016KT 34/17 A2998 RMK A01 T03420166  RH  035%=      5-min Rain = 0
KGO1 252028Z 13014KT 34/16 A2998 RMK A01 T03400163  RH  035%=      5-min Rain = 0
KGO1 252029Z 12016KT 34/16 A2998 RMK A01 T03380164  RH  036%=      5-min Rain = 0
KGO1 252030Z 12013KT 33/16 A2998 RMK A01 T03330159  RH  035%=      5-min Rain = 0
KGO1 252031Z 12013KT 33/16 A2997 RMK A01 T03300163  RH  037%=      5-min Rain = 0
KGO1 252032Z 13016KT 33/16 A2997 RMK A01 T03290164  RH  037%=      5-min Rain = 0
KGO1 252033Z 14017G22KT 33/16 A2997 RMK A01 T03290164  RH  037%=      5-min Rain = 0
KGO1 252034Z 14017KT 33/16 A2998 RMK A01 T03290160  RH  036%=      5-min Rain = 0
KGO1 252035Z 14017KT 33/16 A2998 RMK A01 T03290162  RH  037%=      5-min Rain = 0
KGO1 252036Z 13018KT 33/16 A2998 RMK A01 T03310161  RH  036%=      5-min Rain = 0
KGO1 252037Z 13015KT 33/16 A2998 RMK A01 T03330162  RH  036%=      5-min Rain = 0
KGO1 252038Z 14017KT 33/16 A2997 RMK A01 T03340160  RH  035%=      5-min Rain = 0
KGO1 252039Z 13014KT 33/16 A2997 RMK A01 T03340164  RH  036%=      5-min Rain = 0
KGO1 252040Z 13014KT 34/16 A2997 RMK A01 T03350162  RH  036%=      5-min Rain = 0
KGO1 252041Z 13015KT 34/16 A2997 RMK A01 T03370161  RH  035%=      5-min Rain = 0
KGO1 252042Z 14015KT 34/16 A2997 RMK A01 T03380164  RH  035%=      5-min Rain = 0
KGO1 252043Z 13016KT 34/16 A2997 RMK A01 T03390161  RH  035%=      5-min Rain = 0
KGO1 252044Z 14018KT 34/17 A2997 RMK A01 T03390166  RH  036%=      5-min Rain = 0
KGO1 252045Z 14013KT 34/16 A2997 RMK A01 T03390163  RH  035%=      5-min Rain = 0
KGO1 252046Z 13014KT 34/17 A2997 RMK A01 T03410171  RH  036%=      5-min Rain = 0
KGO1 252047Z 13016KT 34/17 A2997 RMK A01 T03430165  RH  035%=      5-min Rain = 0
KGO1 252048Z 13015KT 34/17 A2997 RMK A01 T03430166  RH  035%=      5-min Rain = 0
KGO1 252049Z 13015KT 34/17 A2996 RMK A01 T03430166  RH  035%=      5-min Rain = 0
KGO1 252050Z 12015KT 34/17 A2996 RMK A01 T03440170  RH  035%=      5-min Rain = 0
KGO1 252051Z 12018KT 35/16 A2997 RMK A01 T03460161  RH  033%=      5-min Rain = 0
KGO1 252052Z 13014KT 34/16 A2996 RMK A01 T03430158  RH  033%=      5-min Rain = 0
KGO1 252053Z 13018KT 34/16 A2996 RMK A01 T03420162  RH  034%=      5-min Rain = 0
KGO1 252054Z 13018KT 34/16 A2996 RMK A01 T03420155  RH  033%=      5-min Rain = 0
KGO1 252055Z 14017KT 34/15 A2996 RMK A01 T03390154  RH  033%=      5-min Rain = 0
KGO1 252056Z 14018KT 34/16 A2996 RMK A01 T03400160  RH  034%=      5-min Rain = 0
KGO1 252057Z 15015KT 34/16 A2996 RMK A01 T03400155  RH  033%=      5-min Rain = 0
KGO1 252058Z 13013KT 34/16 A2996 RMK A01 T03380159  RH  034%=      5-min Rain = 0
KGO1 252059Z 12015KT 34/16 A2996 RMK A01 T03380157  RH  034%=      5-min Rain = 0
KGO1 252100Z 13014G19KT 34/16 A2996 RMK A01 T03370160  RH  035%=      5-min Rain = 0
KGO1 252101Z 14017KT 34/15 A2996 RMK A01 T03350154  RH  034%=      5-min Rain = 0
KGO1 252102Z 13014KT 33/15 A2996 RMK A01 T03290153  RH  035%=      5-min Rain = 0
KGO1 252103Z 13019KT 33/15 A2996 RMK A01 T03270152  RH  035%=      5-min Rain = 0
KGO1 252104Z 13016KT 32/15 A2996 RMK A01 T03240148  RH  035%=      5-min Rain = 0
KGO1 252105Z 13015KT 32/15 A2996 RMK A01 T03220150  RH  035%=      5-min Rain = 0
KGO1 252106Z 13014KT 32/15 A2996 RMK A01 T03200150  RH  036%=      5-min Rain = 0
KGO1 252107Z 12018G23KT 32/15 A2996 RMK A01 T03190145  RH  035%=      5-min Rain = 0
KGO1 252108Z 13015KT 32/14 A2996 RMK A01 T03180144  RH  035%=      5-min Rain = 0
KGO1 252109Z 12011G16KT 32/15 A2996 RMK A01 T03170149  RH  036%=      5-min Rain = 0
KGO1 252110Z 12012KT 32/15 A2996 RMK A01 T03170154  RH  037%=      5-min Rain = 0
KGO1 252111Z 13013G19KT 32/16 A2996 RMK A01 T03160155  RH  038%=      5-min Rain = 0
KGO1 252112Z 14020KT 32/15 A2996 RMK A01 T03160147  RH  036%=      5-min Rain = 0
KGO1 252113Z 13015G20KT 32/14 A2996 RMK A01 T03150141  RH  035%=      5-min Rain = 0
KGO1 252114Z 12014KT 32/14 A2996 RMK A01 T03150142  RH  035%=      5-min Rain = 0
KGO1 252115Z 13011KT 32/15 A2996 RMK A01 T03150145  RH  036%=      5-min Rain = 0
KGO1 252116Z 12011KT 31/15 A2996 RMK A01 T03140146  RH  036%=      5-min Rain = 0
KGO1 252117Z 12011KT 31/15 A2996 RMK A01 T03130147  RH  037%=      5-min Rain = 0
KGO1 252118Z 13012KT 31/15 A2996 RMK A01 T03130147  RH  037%=      5-min Rain = 0
KGO1 252119Z 12012KT 31/14 A2996 RMK A01 T03120144  RH  036%=      5-min Rain = 0
KGO1 252120Z 13015KT 31/15 A2996 RMK A01 T03110146  RH  037%=      5-min Rain = 0
KGO1 252121Z 13013KT 31/15 A2996 RMK A01 T03120145  RH  036%=      5-min Rain = 0
KGO1 252122Z 13011KT 31/15 A2996 RMK A01 T03120146  RH  036%=      5-min Rain = 0
KGO1 252123Z 13011KT 31/15 A2996 RMK A01 T03110145  RH  037%=      5-min Rain = 0
KGO1 252124Z 13013G20KT 31/15 A2996 RMK A01 T03100145  RH  037%=      5-min Rain = 0
KGO1 252125Z 12015KT 31/14 A2996 RMK A01 T03100140  RH  036%=      5-min Rain = 0
KGO1 252126Z 13015KT 31/14 A2996 RMK A01 T03100141  RH  036%=      5-min Rain = 0
KGO1 252127Z 12012KT 31/14 A2996 RMK A01 T03090142  RH  036%=      5-min Rain = 0
KGO1 252128Z 12013KT 31/14 A2996 RMK A01 T03080143  RH  037%=      5-min Rain = 0
KGO1 252129Z 12013KT 31/14 A2996 RMK A01 T03070143  RH  037%=      5-min Rain = 0
KGO1 252130Z 13012KT 31/14 A2996 RMK A01 T03070143  RH  037%=      5-min Rain = 0
KGO1 252131Z 13012KT 31/14 A2995 RMK A01 T03060143  RH  037%=      5-min Rain = 0
KGO1 252132Z 12010KT 31/15 A2995 RMK A01 T03060145  RH  037%=      5-min Rain = 0
KGO1 252133Z 12013KT 31/14 A2995 RMK A01 T03060144  RH  037%=      5-min Rain = 0
KGO1 252134Z 13013KT 31/14 A2995 RMK A01 T03050139  RH  036%=      5-min Rain = 0
KGO1 252135Z 13014KT 31/14 A2995 RMK A01 T03060140  RH  036%=      5-min Rain = 0
KGO1 252136Z 13013KT 31/14 A2995 RMK A01 T03060138  RH  036%=      5-min Rain = 0
KGO1 252137Z 12012KT 31/14 A2995 RMK A01 T03070142  RH  037%=      5-min Rain = 0
KGO1 252138Z 11012KT 31/14 A2994 RMK A01 T03060142  RH  037%=      5-min Rain = 0
KGO1 252139Z 12012KT 31/14 A2994 RMK A01 T03050142  RH  037%=      5-min Rain = 0
KGO1 252140Z 12016KT 30/14 A2995 RMK A01 T03040138  RH  036%=      5-min Rain = 0
KGO1 252141Z 12016KT 30/14 A2995 RMK A01 T03040135  RH  036%=      5-min Rain = 0
KGO1 252142Z 12014KT 31/14 A2995 RMK A01 T03050137  RH  036%=      5-min Rain = 0
KGO1 252143Z 12012KT 31/14 A2995 RMK A01 T03050138  RH  036%=      5-min Rain = 0
KGO1 252144Z 12015KT 30/14 A2995 RMK A01 T03040139  RH  036%=      5-min Rain = 0
KGO1 252145Z 12012KT 30/14 A2995 RMK A01 T03040140  RH  037%=      5-min Rain = 0
KGO1 252146Z 13012KT 30/14 A2995 RMK A01 T03030141  RH  037%=      5-min Rain = 0
KGO1 252147Z 12010KT 30/14 A2995 RMK A01 T03030142  RH  037%=      5-min Rain = 0
KGO1 252148Z 12012KT 30/15 A2996 RMK A01 T03020153  RH  041%=      5-min Rain = 0
KGO1 252149Z 13015KT 29/17 A2996 RMK A01 T02930167  RH  047%=      5-min Rain = 0
KGO1 252150Z 14013KT 28/17 A2996 RMK A01 T02790169  RH  051%=      5-min Rain = 0.02
KGO1 252151Z 14011KT 27/18 A2997 RMK A01 T02680176  RH  057%=      5-min Rain = 0
KGO1 252152Z 14010KT 26/18 A2997 RMK A01 T02610176  RH  060%=      5-min Rain = 0
KGO1 252153Z 15011KT 26/18 A2997 RMK A01 T02570176  RH  061%=      5-min Rain = 0.01
KGO1 252154Z 14011KT 26/18 A2997 RMK A01 T02560176  RH  061%=      5-min Rain = 0
KGO1 252155Z 13010KT 26/18 A2998 RMK A01 T02560176  RH  061%=      5-min Rain = 0
KGO1 252156Z 13011KT 26/18 A2998 RMK A01 T02560183  RH  064%=      5-min Rain = 0.01
KGO1 252157Z 13011KT 26/18 A2998 RMK A01 T02550178  RH  063%=      5-min Rain = 0
KGO1 252158Z 13010KT 26/18 A2998 RMK A01 T02550182  RH  064%=      5-min Rain = 0
KGO1 252159Z 12011KT 25/18 A2997 RMK A01 T02530183  RH  065%=      5-min Rain = 0.01
KGO1 252200Z 12010KT 25/18 A2997 RMK A01 T02510184  RH  067%=      5-min Rain = 0
KGO1 252201Z 12010KT 25/18 A2997 RMK A01 T02490184  RH  067%=      5-min Rain = 0.01
KGO1 252202Z 12011KT 25/18 A2997 RMK A01 T02470184  RH  068%=      5-min Rain = 0
KGO1 252203Z 12011KT 25/18 A2997 RMK A01 T02470184  RH  068%=      5-min Rain = 0
KGO1 252204Z 12011KT 25/18 A2997 RMK A01 T02460181  RH  067%=      5-min Rain = 0.01
KGO1 252205Z 12013KT 25/18 A2996 RMK A01 T02470175  RH  064%=      5-min Rain = 0
KGO1 252206Z 12011KT 25/18 A2996 RMK A01 T02510180  RH  065%=      5-min Rain = 0
KGO1 252207Z 12013KT 25/18 A2996 RMK A01 T02510180  RH  065%=      5-min Rain = 0.01
KGO1 252208Z 12012KT 25/18 A2996 RMK A01 T02500181  RH  066%=      5-min Rain = 0
KGO1 252209Z 11010KT 25/18 A2996 RMK A01 T02480184  RH  067%=      5-min Rain = 0
KGO1 252210Z 11009KT 25/19 A2996 RMK A01 T02450188  RH  070%=      5-min Rain = 0
KGO1 252211Z 11010KT 24/18 A2995 RMK A01 T02420184  RH  070%=      5-min Rain = 0
KGO1 252212Z 11010KT 24/18 A2995 RMK A01 T02430181  RH  068%=      5-min Rain = 0
KGO1 252213Z 11011KT 25/18 A2995 RMK A01 T02450183  RH  068%=      5-min Rain = 0
KGO1 252214Z 11008KT 25/18 A2995 RMK A01 T02460181  RH  067%=      5-min Rain = 0.01
KGO1 252215Z 10008KT 25/18 A2995 RMK A01 T02460183  RH  068%=      5-min Rain = 0
KGO1 252216Z 09007KT 25/18 A2996 RMK A01 T02460184  RH  068%=      5-min Rain = 0
KGO1 252217Z 08007KT 25/18 A2996 RMK A01 T02460184  RH  068%=      5-min Rain = 0.01
KGO1 252218Z 09009KT 25/18 A2996 RMK A01 T02470183  RH  067%=      5-min Rain = 0
KGO1 252219Z 08008KT 25/18 A2995 RMK A01 T02480182  RH  067%=      5-min Rain = 0
KGO1 252220Z 07007KT 25/18 A2995 RMK A01 T02500180  RH  065%=      5-min Rain = 0
KGO1 252221Z 07007KT 25/18 A2995 RMK A01 T02520183  RH  066%=      5-min Rain = 0
KGO1 252222Z 07006KT 25/19 A2996 RMK A01 T02510185  RH  067%=      5-min Rain = 0
KGO1 252223Z 06006KT 25/19 A2996 RMK A01 T02500186  RH  068%=      5-min Rain = 0
KGO1 252224Z 05007KT 25/19 A2995 RMK A01 T02490188  RH  069%=      5-min Rain = 0
KGO1 252225Z 03009KT 25/19 A2995 RMK A01 T02470191  RH  071%=      5-min Rain = 0
KGO1 252226Z 02011KT 24/19 A2995 RMK A01 T02440189  RH  071%=      5-min Rain = 0
KGO1 252227Z 01012KT 24/19 A2995 RMK A01 T02420189  RH  072%=      5-min Rain = 0
KGO1 252228Z 36013KT 24/19 A2995 RMK A01 T02400193  RH  075%=      5-min Rain = 0.01
KGO1 252229Z 36014G19KT 24/20 A2995 RMK A01 T02360196  RH  078%=      5-min Rain = 0.01
KGO1 252230Z 36015KT 23/19 A2995 RMK A01 T02300188  RH  077%=      5-min Rain = 0
KGO1 252231Z 00013KT 23/19 A2996 RMK A01 T02270185  RH  077%=      5-min Rain = 0.01
KGO1 252232Z 01019KT 22/18 A2996 RMK A01 T02240175  RH  074%=      5-min Rain = 0
KGO1 252233Z 35016G32KT 22/17 A2997 RMK A01 T02190169  RH  073%=      5-min Rain = 0.01
KGO1 252234Z 33028G33KT 22/16 A2996 RMK A01 T02170160  RH  070%=      5-min Rain = 0
KGO1 252235Z 34026G33KT 21/16 A2997 RMK A01 T02140155  RH  069%=      5-min Rain = 0
KGO1 252236Z 35028G34KT 21/15 A2997 RMK A01 T02110153  RH  069%=      5-min Rain = 0
KGO1 252237Z 35028G38KT 21/15 A2998 RMK A01 T02060152  RH  071%=      5-min Rain = 0
KGO1 252238Z 34031G37KT 20/15 A2998 RMK A01 T02040148  RH  070%=      5-min Rain = 0
KGO1 252239Z 33033G40KT 20/15 A2997 RMK A01 T02010148  RH  072%=      5-min Rain = 0
KGO1 252240Z 33036G43KT 20/15 A2996 RMK A01 T01970147  RH  073%=      5-min Rain = 0.01
KGO1 252241Z 33034G43KT 19/15 A2996 RMK A01 T01940145  RH  073%=      5-min Rain = 0
KGO1 252242Z 32037KT 19/15 A2995 RMK A01 T01930147  RH  075%=      5-min Rain = 0
KGO1 252243Z 32033G39KT 19/15 A2996 RMK A01 T01900147  RH  076%=      5-min Rain = 0
KGO1 252244Z 32030G40KT 19/15 A2997 RMK A01 T01880148  RH  078%=      5-min Rain = 0
KGO1 252245Z 32030G35KT 19/15 A2997 RMK A01 T01860150  RH  079%=      5-min Rain = 0
KGO1 252246Z 32032G38KT 18/15 A2997 RMK A01 T01840150  RH  080%=      5-min Rain = 0
KGO1 252247Z 32032G38KT 18/15 A2998 RMK A01 T01830148  RH  080%=      5-min Rain = 0
KGO1 252248Z 32027G33KT 18/15 A30 RMK A01 T01830150  RH  081%=      5-min Rain = 0
KGO1 252249Z 32030G37KT 18/15 A30 RMK A01 T01820151  RH  082%=      5-min Rain = 0.01
KGO1 252250Z 32034G40KT 18/15 A30 RMK A01 T01820152  RH  083%=      5-min Rain = 0
KGO1 252251Z 33032G38KT 18/16 A3002 RMK A01 T01830157  RH  085%=      5-min Rain = 0.01
KGO1 252252Z 33030G38KT 18/16 A3002 RMK A01 T01820161  RH  087%=      5-min Rain = 0.01
KGO1 252253Z 33029G37KT 18/16 A3003 RMK A01 T01800163  RH  089%=      5-min Rain = 0
KGO1 252254Z 34027G33KT 18/16 A3003 RMK A01 T01790163  RH  090%=      5-min Rain = 0.01
KGO1 252255Z 33028G33KT 18/16 A3003 RMK A01 T01780163  RH  091%=      5-min Rain = 0.01
KGO1 252256Z 34028G39KT 18/16 A3004 RMK A01 T01770164  RH  092%=      5-min Rain = 0.01
KGO1 252257Z 33039G45KT 18/16 A3004 RMK A01 T01760163  RH  092%=      5-min Rain = 0.01
KGO1 252258Z 33034G44KT 17/17 A3005 RMK A01 T01730166  RH  096%=      5-min Rain = 0.02
KGO1 252259Z 32030G36KT 17/17 A3006 RMK A01 T01700167  RH  098%=      5-min Rain = 0.02
KGO1 252300Z 33029G35KT 17/17 A3005 RMK A01 T01680166  RH  099%=      5-min Rain = 0.02
KGO1 252301Z 33027G33KT 17/17 A3005 RMK A01 T01660165  RH  099%=      5-min Rain = 0.03
KGO1 252302Z 34024KT 17/17 A3005 RMK A01 T01660165  RH  099%=      5-min Rain = 0.02
KGO1 252303Z 34027G34KT 17/17 A3006 RMK A01 T01650165  RH  100%=      5-min Rain = 0.03
KGO1 252304Z 34028G33KT 16/16 A3006 RMK A01 T01640164  RH  100%=      5-min Rain = 0.04
KGO1 252305Z 34021KT 16/16 A3006 RMK A01 T01640164  RH  100%=      5-min Rain = 0.04
KGO1 252306Z 35018KT 16/16 A3006 RMK A01 T01630163  RH  100%=      5-min Rain = 0.03
KGO1 252307Z 00020G25KT 16/16 A3006 RMK A01 T01630163  RH  100%=      5-min Rain = 0.04
KGO1 252308Z 01022KT 16/16 A3005 RMK A01 T01630163  RH  100%=      5-min Rain = 0.03
KGO1 252309Z 02022G28KT 16/16 A3005 RMK A01 T01630163  RH  099%=      5-min Rain = 0.03
KGO1 252310Z 02023KT 16/16 A3005 RMK A01 T01640163  RH  099%=      5-min Rain = 0.04
KGO1 252311Z 03023G29KT 16/16 A3005 RMK A01 T01630162  RH  099%=      5-min Rain = 0.02
KGO1 252312Z 03021G27KT 16/16 A3004 RMK A01 T01630160  RH  098%=      5-min Rain = 0.02
KGO1 252313Z 04020KT 16/16 A3004 RMK A01 T01640160  RH  097%=      5-min Rain = 0.03
KGO1 252314Z 04019KT 16/16 A3004 RMK A01 T01640159  RH  097%=      5-min Rain = 0.03
KGO1 252315Z 04019KT 16/16 A3003 RMK A01 T01640156  RH  095%=      5-min Rain = 0.02
KGO1 252316Z 04016KT 17/15 A3003 RMK A01 T01660153  RH  092%=      5-min Rain = 0.01
KGO1 252317Z 04015G20KT 17/15 A3002 RMK A01 T01680153  RH  091%=      5-min Rain = 0.01
KGO1 252318Z 04016KT 17/15 A3003 RMK A01 T01700150  RH  088%=      5-min Rain = 0
KGO1 252319Z 03016KT 17/15 A3002 RMK A01 T01740150  RH  086%=      5-min Rain = 0
KGO1 252320Z 03017KT 18/15 A3002 RMK A01 T01760149  RH  084%=      5-min Rain = 0.01
KGO1 252321Z 03014KT 18/15 A3002 RMK A01 T01760153  RH  086%=      5-min Rain = 0
KGO1 252322Z 04015KT 18/15 A3002 RMK A01 T01750151  RH  086%=      5-min Rain = 0
KGO1 252323Z 04016G22KT 18/15 A3002 RMK A01 T01760150  RH  085%=      5-min Rain = 0
KGO1 252324Z 04020KT 18/15 A3003 RMK A01 T01790150  RH  083%=      5-min Rain = 0.01
KGO1 252325Z 05017KT 18/15 A3002 RMK A01 T01820148  RH  080%=      5-min Rain = 0
KGO1 252326Z 06020KT 19/15 A3002 RMK A01 T01850146  RH  078%=      5-min Rain = 0.01
KGO1 252327Z 06017KT 19/15 A3002 RMK A01 T01870146  RH  077%=      5-min Rain = 0
KGO1 252328Z 07017KT 19/15 A3001 RMK A01 T01880145  RH  076%=      5-min Rain = 0
KGO1 252329Z 07017G23KT 19/15 A3001 RMK A01 T01880145  RH  076%=      5-min Rain = 0.01
KGO1 252330Z 07018KT 19/14 A3001 RMK A01 T01880144  RH  075%=      5-min Rain = 0
KGO1 252331Z 07017KT 19/15 A3001 RMK A01 T01880145  RH  076%=      5-min Rain = 0
KGO1 252332Z 08016KT 19/15 A3002 RMK A01 T01890145  RH  076%=      5-min Rain = 0
KGO1 252333Z 09014KT 19/14 A3002 RMK A01 T01890144  RH  075%=      5-min Rain = 0
KGO1 252334Z 08013G18KT 19/15 A3002 RMK A01 T01880146  RH  076%=      5-min Rain = 0.01
KGO1 252335Z 10013G18KT 19/15 A3001 RMK A01 T01870147  RH  077%=      5-min Rain = 0
KGO1 252336Z 10017G22KT 19/15 A3001 RMK A01 T01860145  RH  077%=      5-min Rain = 0
KGO1 252337Z 08019KT 19/15 A3001 RMK A01 T01860145  RH  077%=      5-min Rain = 0
KGO1 252338Z 08020G25KT 19/14 A3001 RMK A01 T01870142  RH  075%=      5-min Rain = 0
KGO1 252339Z 09018KT 19/14 A3001 RMK A01 T01890142  RH  074%=      5-min Rain = 0
KGO1 252340Z 09020G25KT 19/14 A3001 RMK A01 T01890141  RH  074%=      5-min Rain = 0
KGO1 252341Z 09018G23KT 19/14 A3001 RMK A01 T01890143  RH  074%=      5-min Rain = 0
KGO1 252342Z 10021G26KT 19/14 A3001 RMK A01 T01880143  RH  075%=      5-min Rain = 0
KGO1 252343Z 09021G26KT 19/14 A3001 RMK A01 T01880144  RH  075%=      5-min Rain = 0
KGO1 252344Z 09024G31KT 19/14 A30 RMK A01 T01880142  RH  075%=      5-min Rain = 0
KGO1 252345Z 10023G28KT 19/14 A30 RMK A01 T01890142  RH  074%=      5-min Rain = 0
KGO1 252346Z 10022G29KT 19/14 A30 RMK A01 T01890144  RH  075%=      5-min Rain = 0
KGO1 252347Z 10024G29KT 19/14 A2999 RMK A01 T01880142  RH  075%=      5-min Rain = 0
KGO1 252348Z 10025G30KT 19/14 A2999 RMK A01 T01900139  RH  072%=      5-min Rain = 0
KGO1 252349Z 09021G27KT 19/14 A2999 RMK A01 T01900142  RH  074%=      5-min Rain = 0
KGO1 252350Z 09024KT 19/14 A2999 RMK A01 T01890143  RH  075%=      5-min Rain = 0
KGO1 252351Z 09020G26KT 19/14 A2998 RMK A01 T01880143  RH  075%=      5-min Rain = 0
KGO1 252352Z 09022G28KT 19/14 A2998 RMK A01 T01870142  RH  075%=      5-min Rain = 0
KGO1 252353Z 09021KT 19/14 A2998 RMK A01 T01870142  RH  075%=      5-min Rain = 0
KGO1 252354Z 09018KT 19/14 A2998 RMK A01 T01880142  RH  074%=      5-min Rain = 0
KGO1 252355Z 09018KT 19/14 A2998 RMK A01 T01890144  RH  075%=      5-min Rain = 0
KGO1 252356Z 09021G27KT 19/14 A2998 RMK A01 T01900142  RH  074%=      5-min Rain = 0
KGO1 252357Z 09018G24KT 19/14 A2999 RMK A01 T01930139  RH  071%=      5-min Rain = 0
KGO1 252358Z 09022G28KT 19/14 A2999 RMK A01 T01940140  RH  071%=      5-min Rain = 0
KGO1 252359Z 09020KT 20/14 A2999 RMK A01 T01950142  RH  071%=      5-min Rain = 0
KGO1 260000Z 09020KT 19/14 A2999 RMK A01 T01940140  RH  071%=      5-min Rain = 0
KGO1 260001Z 09019G25KT 20/14 A2999 RMK A01 T01950137  RH  069%=      5-min Rain = 0
KGO1 260002Z 10014KT 20/14 A2999 RMK A01 T01980135  RH  067%=      5-min Rain = 0
KGO1 260003Z 10015KT 20/14 A2999 RMK A01 T01980138  RH  068%=      5-min Rain = 0
KGO1 260004Z 10017KT 20/14 A30 RMK A01 T01990137  RH  068%=      5-min Rain = 0
KGO1 260005Z 10016KT 20/14 A30 RMK A01 T01990138  RH  068%=      5-min Rain = 0
KGO1 260006Z 11015KT 20/14 A30 RMK A01 T01980141  RH  070%=      5-min Rain = 0
KGO1 260007Z 10015G20KT 20/14 A3001 RMK A01 T01960138  RH  069%=      5-min Rain = 0
KGO1 260008Z 10013KT 20/14 A3001 RMK A01 T01970137  RH  069%=      5-min Rain = 0
KGO1 260009Z 10015KT 20/14 A3001 RMK A01 T01970136  RH  068%=      5-min Rain = 0
KGO1 260010Z 11012KT 20/14 A3001 RMK A01 T01980137  RH  068%=      5-min Rain = 0
KGO1 260011Z 11008KT 20/14 A3002 RMK A01 T01980140  RH  069%=      5-min Rain = 0
KGO1 260012Z 10007KT 20/14 A3002 RMK A01 T01960142  RH  071%=      5-min Rain = 0
KGO1 260013Z 09009KT 20/14 A3002 RMK A01 T01950141  RH  071%=      5-min Rain = 0
KGO1 260014Z 08009KT 19/14 A3002 RMK A01 T01940139  RH  070%=      5-min Rain = 0
KGO1 260015Z 07008KT 20/14 A3003 RMK A01 T01950138  RH  070%=      5-min Rain = 0
KGO1 260016Z 05008KT 20/14 A3003 RMK A01 T01950141  RH  071%=      5-min Rain = 0
KGO1 260017Z 05008KT 20/15 A3003 RMK A01 T01950145  RH  073%=      5-min Rain = 0
KGO1 260018Z 03007KT 19/14 A3004 RMK A01 T01940144  RH  073%=      5-min Rain = 0
KGO1 260019Z 03004KT 19/14 A3004 RMK A01 T01930143  RH  073%=      5-min Rain = 0
KGO1 260020Z 02003KT 19/14 A3004 RMK A01 T01930142  RH  072%=      5-min Rain = 0.01
KGO1 260021Z 04003KT 19/14 A3004 RMK A01 T01930141  RH  072%=      5-min Rain = 0.01
KGO1 260022Z 05002KT 19/14 A3003 RMK A01 T01930140  RH  071%=      5-min Rain = 0
KGO1 260023Z 08002KT 19/14 A3003 RMK A01 T01940140  RH  071%=      5-min Rain = 0
KGO1 260024Z 08001KT 19/14 A3003 RMK A01 T01940138  RH  070%=      5-min Rain = 0
KGO1 260025Z 11002KT 19/13 A3003 RMK A01 T01940133  RH  068%=      5-min Rain = 0
KGO1 260026Z 14000KT 20/13 A3003 RMK A01 T01960130  RH  066%=      5-min Rain = 0
KGO1 260027Z 12002KT 20/13 A3003 RMK A01 T01970131  RH  065%=      5-min Rain = 0
KGO1 260028Z 14003KT 20/13 A3003 RMK A01 T01990131  RH  065%=      5-min Rain = 0
KGO1 260029Z 12002KT 20/13 A3004 RMK A01 T02000133  RH  065%=      5-min Rain = 0
KGO1 260030Z 23000KT 20/13 A3004 RMK A01 T02010133  RH  065%=      5-min Rain = 0
KGO1 260031Z 23002KT 20/14 A3004 RMK A01 T02010140  RH  068%=      5-min Rain = 0
KGO1 260032Z 24003KT 20/15 A3004 RMK A01 T02000149  RH  073%=      5-min Rain = 0
KGO1 260033Z 23001KT 20/15 A3005 RMK A01 T01970154  RH  076%=      5-min Rain = 0
KGO1 260034Z 35005KT 19/15 A3005 RMK A01 T01940153  RH  077%=      5-min Rain = 0
KGO1 260035Z 33001KT 19/14 A3005 RMK A01 T01910139  RH  072%=      5-min Rain = 0
KGO1 260036Z 17002KT 19/13 A3006 RMK A01 T01930132  RH  068%=      5-min Rain = 0
KGO1 260037Z 10001KT 20/13 A3006 RMK A01 T01980130  RH  065%=      5-min Rain = 0
KGO1 260038Z 09002KT 20/13 A3006 RMK A01 T02010133  RH  065%=      5-min Rain = 0
KGO1 260039Z 15002KT 20/13 A3006 RMK A01 T02030134  RH  064%=      5-min Rain = 0.01
KGO1 260040Z 20004KT 20/13 A3005 RMK A01 T02040133  RH  063%=      5-min Rain = 0
KGO1 260041Z 20007KT 20/14 A3005 RMK A01 T02040143  RH  068%=      5-min Rain = 0
KGO1 260042Z 20006KT 20/15 A3005 RMK A01 T02020145  RH  070%=      5-min Rain = 0
KGO1 260043Z 19004KT 20/15 A3004 RMK A01 T01990147  RH  072%=      5-min Rain = 0
KGO1 260044Z 15002KT 20/15 A3004 RMK A01 T01970149  RH  074%=      5-min Rain = 0
KGO1 260045Z 13003KT 20/15 A3004 RMK A01 T01950149  RH  074%=      5-min Rain = 0
KGO1 260046Z 11003KT 19/15 A3003 RMK A01 T01940154  RH  078%=      5-min Rain = 0
KGO1 260047Z 11004KT 19/15 A3003 RMK A01 T01910147  RH  075%=      5-min Rain = 0
KGO1 260048Z 11005KT 19/15 A3003 RMK A01 T01910150  RH  077%=      5-min Rain = 0
KGO1 260049Z 12005KT 19/15 A3003 RMK A01 T01900151  RH  078%=      5-min Rain = 0
KGO1 260050Z 12006KT 19/15 A3004 RMK A01 T01900151  RH  078%=      5-min Rain = 0
KGO1 260051Z 13006KT 19/15 A3004 RMK A01 T01890152  RH  079%=      5-min Rain = 0
KGO1 260052Z 14006KT 19/15 A3004 RMK A01 T01890152  RH  079%=      5-min Rain = 0
KGO1 260053Z 15007KT 19/15 A3004 RMK A01 T01890154  RH  080%=      5-min Rain = 0
KGO1 260054Z 18006KT 19/16 A3005 RMK A01 T01890157  RH  082%=      5-min Rain = 0
KGO1 260055Z 17006KT 19/16 A3005 RMK A01 T01890158  RH  083%=      5-min Rain = 0
KGO1 260056Z 16006KT 19/16 A3005 RMK A01 T01880158  RH  082%=      5-min Rain = 0
KGO1 260057Z 15006KT 19/16 A3005 RMK A01 T01880157  RH  082%=      5-min Rain = 0
KGO1 260058Z 15005KT 19/16 A3005 RMK A01 T01880157  RH  082%=      5-min Rain = 0
KGO1 260059Z 15006KT 19/16 A3004 RMK A01 T01880158  RH  082%=      5-min Rain = 0
KGO1 260100Z 15007KT 19/16 A3004 RMK A01 T01890159  RH  083%=      5-min Rain = 0
KGO1 260101Z 15007KT 19/16 A3004 RMK A01 T01890158  RH  082%=      5-min Rain = 0
KGO1 260102Z 14007KT 19/16 A3004 RMK A01 T01890155  RH  081%=      5-min Rain = 0
KGO1 260103Z 12007KT 19/16 A3004 RMK A01 T01890155  RH  080%=      5-min Rain = 0
KGO1 260104Z 12008KT 19/16 A3005 RMK A01 T01890156  RH  081%=      5-min Rain = 0
KGO1 260105Z 12009KT 19/16 A3004 RMK A01 T01890156  RH  081%=      5-min Rain = 0
KGO1 260106Z 11009KT 19/15 A3004 RMK A01 T01900150  RH  078%=      5-min Rain = 0
KGO1 260107Z 11009KT 19/15 A3004 RMK A01 T01930149  RH  076%=      5-min Rain = 0
KGO1 260108Z 11012KT 20/15 A3004 RMK A01 T01950149  RH  075%=      5-min Rain = 0
KGO1 260109Z 11016G22KT 20/14 A3004 RMK A01 T01980137  RH  068%=      5-min Rain = 0
KGO1 260110Z 11016KT 20/14 A3003 RMK A01 T02040138  RH  066%=      5-min Rain = 0
KGO1 260111Z 11016G24KT 21/14 A3003 RMK A01 T02060138  RH  065%=      5-min Rain = 0
KGO1 260112Z 11019KT 21/13 A3003 RMK A01 T02060134  RH  063%=      5-min Rain = 0
KGO1 260113Z 11017G22KT 21/13 A3003 RMK A01 T02070134  RH  063%=      5-min Rain = 0
KGO1 260114Z 11015G22KT 21/14 A3003 RMK A01 T02070137  RH  064%=      5-min Rain = 0
KGO1 260115Z 11014G20KT 21/14 A3003 RMK A01 T02060138  RH  065%=      5-min Rain = 0
KGO1 260116Z 12016G23KT 20/14 A3003 RMK A01 T02040140  RH  067%=      5-min Rain = 0
KGO1 260117Z 12021G28KT 21/13 A3003 RMK A01 T02050132  RH  063%=      5-min Rain = 0
KGO1 260118Z 11024G29KT 21/13 A3003 RMK A01 T02080130  RH  061%=      5-min Rain = 0
KGO1 260119Z 12018G26KT 21/13 A3003 RMK A01 T02110130  RH  060%=      5-min Rain = 0
KGO1 260120Z 12018G24KT 21/13 A3004 RMK A01 T02120133  RH  061%=      5-min Rain = 0
KGO1 260121Z 13021KT 21/13 A3004 RMK A01 T02110129  RH  059%=      5-min Rain = 0
KGO1 260122Z 12022KT 21/13 A3004 RMK A01 T02130129  RH  059%=      5-min Rain = 0
KGO1 260123Z 13021KT 22/13 A3004 RMK A01 T02150127  RH  058%=      5-min Rain = 0
KGO1 260124Z 13023KT 22/13 A3004 RMK A01 T02160127  RH  057%=      5-min Rain = 0
KGO1 260125Z 12019G25KT 22/13 A3005 RMK A01 T02170129  RH  057%=      5-min Rain = 0
KGO1 260126Z 12020G27KT 22/13 A3005 RMK A01 T02170130  RH  058%=      5-min Rain = 0
KGO1 260127Z 12017G23KT 22/13 A3005 RMK A01 T02170128  RH  057%=      5-min Rain = 0
KGO1 260128Z 12022KT 22/13 A3005 RMK A01 T02160126  RH  056%=      5-min Rain = 0
KGO1 260129Z 12021G27KT 22/13 A3005 RMK A01 T02170126  RH  056%=      5-min Rain = 0
KGO1 260130Z 12019G25KT 22/13 A3005 RMK A01 T02180128  RH  057%=      5-min Rain = 0
KGO1 260131Z 13021KT 22/13 A3005 RMK A01 T02160130  RH  058%=      5-min Rain = 0
KGO1 260132Z 12020KT 22/13 A3005 RMK A01 T02150129  RH  058%=      5-min Rain = 0
KGO1 260133Z 12022G27KT 22/13 A3005 RMK A01 T02150130  RH  058%=      5-min Rain = 0
KGO1 260134Z 12020G25KT 22/13 A3005 RMK A01 T02150131  RH  059%=      5-min Rain = 0
KGO1 260135Z 12021G26KT 22/13 A3005 RMK A01 T02150129  RH  058%=      5-min Rain = 0
KGO1 260136Z 12019G25KT 22/13 A3005 RMK A01 T02150132  RH  059%=      5-min Rain = 0
KGO1 260137Z 11018KT 22/13 A3005 RMK A01 T02150131  RH  059%=      5-min Rain = 0
KGO1 260138Z 11023KT 21/13 A3005 RMK A01 T02140130  RH  059%=      5-min Rain = 0
KGO1 260139Z 12020G26KT 21/13 A3005 RMK A01 T02140130  RH  059%=      5-min Rain = 0
KGO1 260140Z 11022G27KT 21/13 A3005 RMK A01 T02140130  RH  059%=      5-min Rain = 0
KGO1 260141Z 12020KT 21/13 A3005 RMK A01 T02140131  RH  059%=      5-min Rain = 0
KGO1 260142Z 12021G26KT 21/13 A3005 RMK A01 T02140130  RH  059%=      5-min Rain = 0
KGO1 260143Z 12019KT 21/13 A3005 RMK A01 T02140131  RH  059%=      5-min Rain = 0
KGO1 260144Z 11020G25KT 21/13 A3005 RMK A01 T02140133  RH  060%=      5-min Rain = 0
KGO1 260145Z 12023KT 21/13 A3005 RMK A01 T02140130  RH  059%=      5-min Rain = 0
KGO1 260146Z 12019G24KT 22/13 A3005 RMK A01 T02150131  RH  058%=      5-min Rain = 0
KGO1 260147Z 11021G27KT 22/13 A3005 RMK A01 T02150132  RH  059%=      5-min Rain = 0
KGO1 260148Z 12020KT 22/13 A3005 RMK A01 T02150131  RH  059%=      5-min Rain = 0
KGO1 260149Z 12017KT 22/13 A3005 RMK A01 T02150133  RH  060%=      5-min Rain = 0
KGO1 260150Z 12018G24KT 21/13 A3005 RMK A01 T02130133  RH  060%=      5-min Rain = 0
KGO1 260151Z 12018KT 21/13 A3005 RMK A01 T02140131  RH  059%=      5-min Rain = 0
KGO1 260152Z 12020KT 22/13 A3005 RMK A01 T02150129  RH  058%=      5-min Rain = 0
KGO1 260153Z 12015KT 22/13 A3005 RMK A01 T02170130  RH  058%=      5-min Rain = 0
KGO1 260154Z 12016KT 22/13 A3005 RMK A01 T02170132  RH  058%=      5-min Rain = 0
KGO1 260155Z 12018KT 22/13 A3005 RMK A01 T02170131  RH  058%=      5-min Rain = 0
KGO1 260156Z 11017KT 22/13 A3005 RMK A01 T02180128  RH  057%=      5-min Rain = 0
KGO1 260157Z 12016KT 22/13 A3005 RMK A01 T02180131  RH  058%=      5-min Rain = 0
KGO1 260158Z 12016KT 22/13 A3005 RMK A01 T02180130  RH  057%=      5-min Rain = 0
KGO1 260159Z 11017G22KT 22/13 A3006 RMK A01 T02180128  RH  057%=      5-min Rain = 0
KGO1 260200Z 12016KT 22/13 A3006 RMK A01 T02190128  RH  056%=      5-min Rain = 0
KGO1 260201Z 11015KT 22/13 A3006 RMK A01 T02190128  RH  056%=      5-min Rain = 0
KGO1 260202Z 12015KT 22/13 A3006 RMK A01 T02190127  RH  056%=      5-min Rain = 0
KGO1 260203Z 12016G22KT 22/13 A3006 RMK A01 T02190127  RH  056%=      5-min Rain = 0
KGO1 260204Z 12016KT 22/13 A3006 RMK A01 T02200125  RH  055%=      5-min Rain = 0
KGO1 260205Z 12014KT 22/13 A3006 RMK A01 T02210126  RH  055%=      5-min Rain = 0
KGO1 260206Z 12017G22KT 22/13 A3006 RMK A01 T02210127  RH  055%=      5-min Rain = 0
KGO1 260207Z 12016G21KT 22/12 A3006 RMK A01 T02220122  RH  053%=      5-min Rain = 0
KGO1 260208Z 12015KT 22/12 A3006 RMK A01 T02230123  RH  053%=      5-min Rain = 0
KGO1 260209Z 12017G22KT 22/12 A3006 RMK A01 T02230122  RH  053%=      5-min Rain = 0
KGO1 260210Z 12016G21KT 22/12 A3006 RMK A01 T02240121  RH  052%=      5-min Rain = 0
KGO1 260211Z 12018KT 23/12 A3006 RMK A01 T02250119  RH  051%=      5-min Rain = 0
KGO1 260212Z 12017KT 23/12 A3006 RMK A01 T02260118  RH  050%=      5-min Rain = 0
KGO1 260213Z 12016G22KT 23/12 A3006 RMK A01 T02270120  RH  051%=      5-min Rain = 0
KGO1 260214Z 12019G24KT 23/12 A3006 RMK A01 T02270117  RH  050%=      5-min Rain = 0
KGO1 260215Z 12017KT 23/12 A3006 RMK A01 T02270118  RH  050%=      5-min Rain = 0
KGO1 260216Z 12018G23KT 23/12 A3006 RMK A01 T02270119  RH  050%=      5-min Rain = 0
KGO1 260217Z 12023G29KT 23/11 A3006 RMK A01 T02280114  RH  048%=      5-min Rain = 0
KGO1 260218Z 12023KT 23/11 A3006 RMK A01 T02320112  RH  047%=      5-min Rain = 0
KGO1 260219Z 12022G28KT 23/11 A3005 RMK A01 T02330114  RH  047%=      5-min Rain = 0
KGO1 260220Z 13023KT 23/12 A3006 RMK A01 T02330115  RH  047%=      5-min Rain = 0
KGO1 260221Z 13021G27KT 23/12 A3006 RMK A01 T02320118  RH  049%=      5-min Rain = 0
KGO1 260222Z 13019KT 23/12 A3005 RMK A01 T02300118  RH  049%=      5-min Rain = 0
KGO1 260223Z 12021KT 23/12 A3005 RMK A01 T02290118  RH  049%=      5-min Rain = 0
KGO1 260224Z 12022G29KT 23/12 A3005 RMK A01 T02290116  RH  049%=      5-min Rain = 0
KGO1 260225Z 12023G30KT 23/11 A3005 RMK A01 T02290113  RH  048%=      5-min Rain = 0
KGO1 260226Z 12024KT 23/11 A3005 RMK A01 T02310114  RH  048%=      5-min Rain = 0
KGO1 260227Z 12022G28KT 23/11 A3005 RMK A01 T02320113  RH  047%=      5-min Rain = 0
KGO1 260228Z 12024KT 23/11 A3005 RMK A01 T02320114  RH  047%=      5-min Rain = 0
KGO1 260229Z 12023KT 23/11 A3005 RMK A01 T02320113  RH  047%=      5-min Rain = 0
KGO1 260230Z 12021KT 23/11 A3005 RMK A01 T02330113  RH  047%=      5-min Rain = 0
KGO1 260231Z 12017G24KT 23/12 A3005 RMK A01 T02320116  RH  048%=      5-min Rain = 0
KGO1 260232Z 12020KT 23/11 A3005 RMK A01 T02310114  RH  048%=      5-min Rain = 0
KGO1 260233Z 12017KT 23/11 A3005 RMK A01 T02310114  RH  048%=      5-min Rain = 0
KGO1 260234Z 13015KT 23/12 A3006 RMK A01 T02310117  RH  049%=      5-min Rain = 0
KGO1 260235Z 13020KT 23/12 A3006 RMK A01 T02310116  RH  048%=      5-min Rain = 0
KGO1 260236Z 13019G24KT 23/11 A3006 RMK A01 T02320113  RH  047%=      5-min Rain = 0
KGO1 260237Z 13017KT 23/12 A3007 RMK A01 T02320115  RH  048%=      5-min Rain = 0
KGO1 260238Z 13016KT 23/12 A3007 RMK A01 T02320115  RH  048%=      5-min Rain = 0
KGO1 260239Z 13018KT 23/12 A3007 RMK A01 T02320117  RH  048%=      5-min Rain = 0
KGO1 260240Z 13020KT 23/11 A3007 RMK A01 T02320112  RH  047%=      5-min Rain = 0
KGO1 260241Z 13018KT 23/11 A3007 RMK A01 T02340114  RH  047%=      5-min Rain = 0
KGO1 260242Z 13017KT 23/11 A3007 RMK A01 T02340114  RH  047%=      5-min Rain = 0
KGO1 260243Z 13020KT 23/11 A3007 RMK A01 T02330114  RH  047%=      5-min Rain = 0
KGO1 260244Z 13021G26KT 23/11 A3007 RMK A01 T02330114  RH  047%=      5-min Rain = 0
KGO1 260245Z 13016KT 23/12 A3007 RMK A01 T02330117  RH  048%=      5-min Rain = 0
KGO1 260246Z 13016KT 23/12 A3007 RMK A01 T02320118  RH  049%=      5-min Rain = 0
KGO1 260247Z 13017KT 23/12 A3007 RMK A01 T02310117  RH  049%=      5-min Rain = 0
KGO1 260248Z 13016KT 23/12 A3007 RMK A01 T02300119  RH  049%=      5-min Rain = 0
KGO1 260249Z 13018KT 23/12 A3007 RMK A01 T02290118  RH  050%=      5-min Rain = 0
KGO1 260250Z 13017KT 23/12 A3007 RMK A01 T02290117  RH  049%=      5-min Rain = 0
KGO1 260251Z 13015G21KT 23/12 A3007 RMK A01 T02290118  RH  049%=      5-min Rain = 0
KGO1 260252Z 13017KT 23/12 A3007 RMK A01 T02280119  RH  050%=      5-min Rain = 0
KGO1 260253Z 13015G21KT 23/12 A3008 RMK A01 T02280119  RH  050%=      5-min Rain = 0
KGO1 260254Z 13015KT 23/12 A3008 RMK A01 T02270122  RH  051%=      5-min Rain = 0
KGO1 260255Z 13015KT 23/12 A3008 RMK A01 T02250121  RH  052%=      5-min Rain = 0
KGO1 260256Z 13015KT 23/12 A3008 RMK A01 T02250120  RH  052%=      5-min Rain = 0
KGO1 260257Z 13016KT 22/12 A3008 RMK A01 T02240119  RH  051%=      5-min Rain = 0
KGO1 260258Z 13014KT 22/12 A3008 RMK A01 T02240119  RH  051%=      5-min Rain = 0
KGO1 260259Z 13013KT 22/12 A3009 RMK A01 T02240121  RH  052%=      5-min Rain = 0
KGO1 260300Z 12012KT 22/12 A3009 RMK A01 T02230124  RH  053%=      5-min Rain = 0
KGO1 260301Z 12011KT 22/12 A3009 RMK A01 T02210123  RH  054%=      5-min Rain = 0
KGO1 260302Z 11010KT 22/13 A3009 RMK A01 T02200125  RH  055%=      5-min Rain = 0
KGO1 260303Z 11009KT 22/13 A3009 RMK A01 T02190125  RH  055%=      5-min Rain = 0
KGO1 260304Z 11011KT 22/13 A301 RMK A01 T02180125  RH  056%=      5-min Rain = 0
KGO1 260305Z 11009KT 22/12 A301 RMK A01 T02180124  RH  055%=      5-min Rain = 0
KGO1 260306Z 12008KT 22/13 A301 RMK A01 T02170127  RH  056%=      5-min Rain = 0
KGO1 260307Z 12009KT 22/13 A3009 RMK A01 T02150128  RH  057%=      5-min Rain = 0
KGO1 260308Z 12010KT 21/13 A3009 RMK A01 T02140129  RH  058%=      5-min Rain = 0
KGO1 260309Z 13011KT 21/13 A3009 RMK A01 T02130130  RH  059%=      5-min Rain = 0
KGO1 260310Z 13011KT 21/13 A3009 RMK A01 T02120132  RH  060%=      5-min Rain = 0
KGO1 260311Z 13012KT 21/13 A3009 RMK A01 T02100133  RH  061%=      5-min Rain = 0
KGO1 260312Z 14013KT 21/13 A3009 RMK A01 T02080134  RH  062%=      5-min Rain = 0
KGO1 260313Z 14011KT 21/14 A3009 RMK A01 T02070135  RH  063%=      5-min Rain = 0
KGO1 260314Z 14012KT 21/14 A3009 RMK A01 T02050135  RH  064%=      5-min Rain = 0
KGO1 260315Z 14009KT 20/14 A3009 RMK A01 T02040138  RH  066%=      5-min Rain = 0
KGO1 260316Z 14008KT 20/14 A3009 RMK A01 T02010140  RH  068%=      5-min Rain = 0
KGO1 260317Z 14008KT 20/14 A301 RMK A01 T02000138  RH  068%=      5-min Rain = 0
KGO1 260318Z 15008KT 20/14 A301 RMK A01 T01990137  RH  067%=      5-min Rain = 0
KGO1 260319Z 16006KT 20/14 A3011 RMK A01 T01990138  RH  068%=      5-min Rain = 0
KGO1 260320Z 15009KT 20/14 A3011 RMK A01 T01980139  RH  069%=      5-min Rain = 0
KGO1 260321Z 16008KT 20/14 A3011 RMK A01 T01980139  RH  069%=      5-min Rain = 0
KGO1 260322Z 17010KT 20/14 A3011 RMK A01 T01980139  RH  069%=      5-min Rain = 0
KGO1 260323Z 16011KT 20/14 A3011 RMK A01 T01980139  RH  069%=      5-min Rain = 0.01
KGO1 260324Z 17012KT 20/14 A3011 RMK A01 T01980139  RH  069%=      5-min Rain = 0
KGO1 260325Z 17013KT 20/14 A3011 RMK A01 T01980140  RH  069%=      5-min Rain = 0
KGO1 260326Z 17014KT 20/14 A3011 RMK A01 T01970140  RH  070%=      5-min Rain = 0
KGO1 260327Z 18015KT 20/14 A3011 RMK A01 T01960142  RH  071%=      5-min Rain = 0
KGO1 260328Z 18014KT 19/14 A301 RMK A01 T01940144  RH  073%=      5-min Rain = 0
KGO1 260329Z 17015KT 19/14 A301 RMK A01 T01920144  RH  073%=      5-min Rain = 0.01
KGO1 260330Z 17018KT 19/14 A301 RMK A01 T01920142  RH  073%=      5-min Rain = 0.01
KGO1 260331Z 16019KT 19/14 A3009 RMK A01 T01920139  RH  071%=      5-min Rain = 0
KGO1 260332Z 16019KT 19/14 A3009 RMK A01 T01940135  RH  069%=      5-min Rain = 0
KGO1 260333Z 16018KT 20/14 A3009 RMK A01 T01960138  RH  069%=      5-min Rain = 0
KGO1 260334Z 17016KT 20/14 A301 RMK A01 T01950139  RH  070%=      5-min Rain = 0
KGO1 260335Z 17015KT 19/14 A301 RMK A01 T01940141  RH  071%=      5-min Rain = 0
KGO1 260336Z 17015KT 19/14 A301 RMK A01 T01920140  RH  072%=      5-min Rain = 0
KGO1 260337Z 17014KT 19/14 A301 RMK A01 T01920142  RH  073%=      5-min Rain = 0
KGO1 260338Z 16013KT 19/14 A301 RMK A01 T01910141  RH  073%=      5-min Rain = 0
KGO1 260339Z 16012KT 19/14 A301 RMK A01 T01910140  RH  072%=      5-min Rain = 0
KGO1 260340Z 15012KT 19/14 A301 RMK A01 T01920142  RH  073%=      5-min Rain = 0
KGO1 260341Z 14013KT 19/14 A301 RMK A01 T01920139  RH  072%=      5-min Rain = 0
KGO1 260342Z 14012KT 19/14 A301 RMK A01 T01920138  RH  071%=      5-min Rain = 0
KGO1 260343Z 14013KT 19/14 A301 RMK A01 T01930138  RH  071%=      5-min Rain = 0
KGO1 260344Z 14014KT 19/14 A301 RMK A01 T01930138  RH  070%=      5-min Rain = 0
KGO1 260345Z 15017KT 19/14 A3009 RMK A01 T01930136  RH  070%=      5-min Rain = 0
KGO1 260346Z 15016KT 20/14 A3009 RMK A01 T01960135  RH  068%=      5-min Rain = 0.01
KGO1 260347Z 14016KT 20/14 A3009 RMK A01 T01960137  RH  068%=      5-min Rain = 0
KGO1 260348Z 14012KT 20/14 A301 RMK A01 T01960138  RH  069%=      5-min Rain = 0
KGO1 260349Z 14012KT 20/14 A301 RMK A01 T01950139  RH  070%=      5-min Rain = 0
KGO1 260350Z 15010KT 19/14 A301 RMK A01 T01940140  RH  071%=      5-min Rain = 0
KGO1 260351Z 16010KT 19/14 A301 RMK A01 T01930141  RH  072%=      5-min Rain = 0
KGO1 260352Z 17015KT 19/14 A301 RMK A01 T01920143  RH  073%=      5-min Rain = 0
KGO1 260353Z 17015KT 19/14 A301 RMK A01 T01910141  RH  073%=      5-min Rain = 0
KGO1 260354Z 16014KT 19/14 A301 RMK A01 T01910143  RH  074%=      5-min Rain = 0
KGO1 260355Z 16014KT 19/14 A301 RMK A01 T01900144  RH  074%=      5-min Rain = 0
KGO1 260356Z 15012KT 19/15 A301 RMK A01 T01900146  RH  076%=      5-min Rain = 0
KGO1 260357Z 15012KT 19/15 A301 RMK A01 T01880146  RH  076%=      5-min Rain = 0
KGO1 260358Z 15011KT 19/15 A301 RMK A01 T01870146  RH  077%=      5-min Rain = 0
KGO1 260359Z 14010KT 19/15 A301 RMK A01 T01860146  RH  077%=      5-min Rain = 0
KGO1 260400Z 14010KT 19/15 A301 RMK A01 T01850146  RH  078%=      5-min Rain = 0
KGO1 260401Z 14009KT 19/15 A301 RMK A01 T01850147  RH  079%=      5-min Rain = 0
KGO1 260402Z 14009KT 18/15 A301 RMK A01 T01840148  RH  079%=      5-min Rain = 0
KGO1 260403Z 14009KT 18/15 A301 RMK A01 T01830148  RH  080%=      5-min Rain = 0
KGO1 260404Z 14009KT 18/15 A301 RMK A01 T01820148  RH  080%=      5-min Rain = 0
KGO1 260405Z 14009KT 18/15 A301 RMK A01 T01820148  RH  081%=      5-min Rain = 0
KGO1 260406Z 14009KT 18/15 A301 RMK A01 T01820148  RH  081%=      5-min Rain = 0
KGO1 260407Z 14008KT 18/15 A3009 RMK A01 T01810149  RH  081%=      5-min Rain = 0
KGO1 260408Z 13008KT 18/15 A3009 RMK A01 T01810151  RH  082%=      5-min Rain = 0
KGO1 260409Z 13008KT 18/15 A3009 RMK A01 T01800153  RH  084%=      5-min Rain = 0
KGO1 260410Z 13007KT 18/15 A3009 RMK A01 T01790153  RH  085%=      5-min Rain = 0
KGO1 260411Z 13006KT 18/15 A3009 RMK A01 T01780153  RH  085%=      5-min Rain = 0
KGO1 260412Z 12003KT 18/15 A3009 RMK A01 T01780152  RH  085%=      5-min Rain = 0
KGO1 260413Z 16004KT 18/15 A3009 RMK A01 T01780151  RH  084%=      5-min Rain = 0
KGO1 260414Z 14007KT 18/15 A3009 RMK A01 T01780151  RH  084%=      5-min Rain = 0
KGO1 260415Z 14010KT 18/15 A3009 RMK A01 T01780147  RH  082%=      5-min Rain = 0
KGO1 260416Z 14012KT 18/15 A3008 RMK A01 T01820146  RH  080%=      5-min Rain = 0
KGO1 260417Z 15014G19KT 18/15 A3008 RMK A01 T01840145  RH  078%=      5-min Rain = 0
KGO1 260418Z 15016KT 19/14 A3008 RMK A01 T01870142  RH  075%=      5-min Rain = 0
KGO1 260419Z 15014KT 19/14 A3008 RMK A01 T01900142  RH  074%=      5-min Rain = 0
KGO1 260420Z 16015KT 19/14 A3008 RMK A01 T01910142  RH  073%=      5-min Rain = 0
KGO1 260421Z 15017KT 19/14 A3008 RMK A01 T01920141  RH  072%=      5-min Rain = 0
KGO1 260422Z 15017KT 19/14 A3008 RMK A01 T01930140  RH  071%=      5-min Rain = 0
KGO1 260423Z 16016KT 19/14 A3008 RMK A01 T01940140  RH  071%=      5-min Rain = 0
KGO1 260424Z 16015KT 19/14 A3008 RMK A01 T01940142  RH  072%=      5-min Rain = 0
KGO1 260425Z 15014KT 19/14 A3008 RMK A01 T01940142  RH  072%=      5-min Rain = 0
KGO1 260426Z 15014KT 19/14 A3008 RMK A01 T01930143  RH  072%=      5-min Rain = 0
KGO1 260427Z 15015KT 19/14 A3008 RMK A01 T01930144  RH  073%=      5-min Rain = 0
KGO1 260428Z 14013KT 19/14 A3008 RMK A01 T01910142  RH  073%=      5-min Rain = 0
KGO1 260429Z 14012KT 19/14 A3008 RMK A01 T01910144  RH  074%=      5-min Rain = 0
KGO1 260430Z 14013KT 19/14 A3007 RMK A01 T01900144  RH  075%=      5-min Rain = 0
KGO1 260431Z 14012KT 19/14 A3007 RMK A01 T01890144  RH  075%=      5-min Rain = 0
KGO1 260432Z 14013KT 19/14 A3007 RMK A01 T01890142  RH  074%=      5-min Rain = 0
KGO1 260433Z 14013KT 19/14 A3008 RMK A01 T01890142  RH  074%=      5-min Rain = 0
KGO1 260434Z 14011KT 19/14 A3008 RMK A01 T01900142  RH  073%=      5-min Rain = 0
KGO1 260435Z 15011KT 19/14 A3008 RMK A01 T01900142  RH  074%=      5-min Rain = 0
KGO1 260436Z 16011KT 19/14 A3007 RMK A01 T01900142  RH  074%=      5-min Rain = 0
KGO1 260437Z 16012KT 19/14 A3007 RMK A01 T01890142  RH  074%=      5-min Rain = 0
KGO1 260438Z 17013KT 19/14 A3007 RMK A01 T01890142  RH  074%=      5-min Rain = 0
KGO1 260439Z 17012KT 19/14 A3007 RMK A01 T01890143  RH  075%=      5-min Rain = 0
KGO1 260440Z 18012KT 19/14 A3007 RMK A01 T01880144  RH  075%=      5-min Rain = 0
KGO1 260441Z 18012KT 19/14 A3007 RMK A01 T01870143  RH  075%=      5-min Rain = 0
KGO1 260442Z 18013KT 19/14 A3007 RMK A01 T01880142  RH  075%=      5-min Rain = 0
KGO1 260443Z 18011KT 19/14 A3007 RMK A01 T01880143  RH  075%=      5-min Rain = 0
KGO1 260444Z 18010KT 19/15 A3007 RMK A01 T01870145  RH  077%=      5-min Rain = 0
KGO1 260445Z 19009KT 19/15 A3007 RMK A01 T01860146  RH  078%=      5-min Rain = 0
KGO1 260446Z 19009KT 18/15 A3007 RMK A01 T01840148  RH  079%=      5-min Rain = 0
KGO1 260447Z 19010KT 18/15 A3007 RMK A01 T01830149  RH  081%=      5-min Rain = 0
KGO1 260448Z 19011KT 18/15 A3007 RMK A01 T01820149  RH  081%=      5-min Rain = 0
KGO1 260449Z 18010KT 18/15 A3007 RMK A01 T01820147  RH  080%=      5-min Rain = 0
KGO1 260450Z 18010KT 18/15 A3007 RMK A01 T01820147  RH  080%=      5-min Rain = 0
KGO1 260451Z 17010KT 18/15 A3007 RMK A01 T01820146  RH  080%=      5-min Rain = 0
KGO1 260452Z 16010KT 18/15 A3007 RMK A01 T01820146  RH  079%=      5-min Rain = 0
KGO1 260453Z 16010KT 18/15 A3006 RMK A01 T01830146  RH  079%=      5-min Rain = 0
KGO1 260454Z 16010KT 18/15 A3006 RMK A01 T01830146  RH  079%=      5-min Rain = 0
KGO1 260455Z 17010KT 18/15 A3006 RMK A01 T01840145  RH  078%=      5-min Rain = 0
KGO1 260456Z 17010KT 19/14 A3006 RMK A01 T01850144  RH  077%=      5-min Rain = 0
KGO1 260457Z 17010KT 19/14 A3006 RMK A01 T01860141  RH  075%=      5-min Rain = 0
KGO1 260458Z 18010KT 19/14 A3006 RMK A01 T01890138  RH  072%=      5-min Rain = 0
KGO1 260459Z 18009KT 19/14 A3006 RMK A01 T01910142  RH  073%=      5-min Rain = 0

Page generated in 0.0818 seconds.